Missouri River (Missouri), Waverly (06895500)

StateMissouriLatestUnknown (80600 cfs)
RiverMissouri RiverRatingObservedEstimated
Updated2020-08-11 19:00 (38 minutes ago)Flood - The river is flooding. Obstacles can be treacherous or deadly. The river should be avoided at this stage for casual trips and definitely for the inexperienced. Trips should be attempted only with protective gear and equipment.Flood(none)(none)
Discharge80600 cfs (median: 51200 cfs)High - The river is high and potentially dangerous, especially for the young and / or inexperienced. Normal stream obstacles are sometimes difficult to navigate. Extended distances can be attempted, but canoe travel may not be advisable.High(none)(none)
Height16.45 feetGood - Conditions are ideal for a canoe or kayak. Boats typically will drag on fewer than one-quarter of riffles, if at all, and portages are unnecessary or rare. Normal float lengths can be attempted without a problem.Good(none)(none)
TrendFalling (falling over 24 hours)Low - River is low but can still be floated. Some riffles are okay but most come with significant dragging and might need a portage. Float lengths should be reduced to accommodate low flow, dragging, and portages.Low(none)(none)
USGSExternal icon USGS Site (External icon Google Maps)Poor - River is too low to float comfortably. Most or all riffles will drag or must be portaged and some obstacles (such as slick shelf rock) cause undue problems. Avoid the river at this stage for casual paddling trips.Poor(none)(none)

Trending Data

Plot Image

Trips for Missouri River (Missouri), Waverly (06895500)

DateStartEndDistanceConditionDischargeHeightFishingDetails

A total of 0 rows are displayed.

Condition Descriptions

Fishing Conditions

Fish Species

Notes

Classic Trip List

The classic River Trips application is still available for use. It is updated with the new system using a data retrofit. It is no longer maintained. The original River Trips application is no longer updated (as of 1 Dec 2016) but can be checked for errors or for the condition of the data before it was converted to the new system.

Gauge Data Table

ObservationHeightDischargeMaximum
Discharge
Minimum
Discharge
Mean
Discharge
P05P10P20P25P50
(Median)
P75P80P90P95
2020-08-11 19:00 16.45 80600 196000 (2011) 34100 (2002) 62200 34500 35800 41300 41900 51200 74600 77900 107000 134000
2020-08-11 18:00 16.49 80900 196000 (2011) 34100 (2002) 62200 34500 35800 41300 41900 51200 74600 77900 107000 134000
2020-08-11 17:00 16.54 81300 196000 (2011) 34100 (2002) 62200 34500 35800 41300 41900 51200 74600 77900 107000 134000
2020-08-11 16:00 16.49 80900 196000 (2011) 34100 (2002) 62200 34500 35800 41300 41900 51200 74600 77900 107000 134000
2020-08-11 15:00 16.56 81400 196000 (2011) 34100 (2002) 62200 34500 35800 41300 41900 51200 74600 77900 107000 134000
2020-08-11 14:00 16.52 81100 196000 (2011) 34100 (2002) 62200 34500 35800 41300 41900 51200 74600 77900 107000 134000
2020-08-11 13:00 16.56 81400 196000 (2011) 34100 (2002) 62200 34500 35800 41300 41900 51200 74600 77900 107000 134000
2020-08-11 12:00 16.58 81600 196000 (2011) 34100 (2002) 62200 34500 35800 41300 41900 51200 74600 77900 107000 134000
2020-08-11 11:00 16.58 81600 196000 (2011) 34100 (2002) 62200 34500 35800 41300 41900 51200 74600 77900 107000 134000
2020-08-11 10:00 16.61 81800 196000 (2011) 34100 (2002) 62200 34500 35800 41300 41900 51200 74600 77900 107000 134000
2020-08-11 09:00 16.63 81900 196000 (2011) 34100 (2002) 62200 34500 35800 41300 41900 51200 74600 77900 107000 134000
2020-08-11 08:00 16.66 82200 196000 (2011) 34100 (2002) 62200 34500 35800 41300 41900 51200 74600 77900 107000 134000
2020-08-11 07:00 16.66 82200 196000 (2011) 34100 (2002) 62200 34500 35800 41300 41900 51200 74600 77900 107000 134000
2020-08-11 06:00 16.68 82300 196000 (2011) 34100 (2002) 62200 34500 35800 41300 41900 51200 74600 77900 107000 134000
2020-08-11 05:00 16.71 82500 196000 (2011) 34100 (2002) 62200 34500 35800 41300 41900 51200 74600 77900 107000 134000
2020-08-11 04:00 16.73 82700 196000 (2011) 34100 (2002) 62200 34500 35800 41300 41900 51200 74600 77900 107000 134000
2020-08-11 03:00 16.69 82400 196000 (2011) 34100 (2002) 62200 34500 35800 41300 41900 51200 74600 77900 107000 134000
2020-08-11 02:00 16.75 82800 196000 (2011) 34100 (2002) 62200 34500 35800 41300 41900 51200 74600 77900 107000 134000
2020-08-11 01:00 16.77 83000 196000 (2011) 34100 (2002) 62200 34500 35800 41300 41900 51200 74600 77900 107000 134000
2020-08-11 00:00 16.76 82900 196000 (2011) 34100 (2002) 62200 34500 35800 41300 41900 51200 74600 77900 107000 134000
2020-08-10 23:00 16.75 82800 198000 (2011) 33400 (2002) 61900 34600 36800 41200 42500 52200 68000 72500 109000 137000
2020-08-10 22:00 16.79 83200 198000 (2011) 33400 (2002) 61900 34600 36800 41200 42500 52200 68000 72500 109000 137000
2020-08-10 21:00 16.81 83300 198000 (2011) 33400 (2002) 61900 34600 36800 41200 42500 52200 68000 72500 109000 137000
2020-08-10 20:00 16.83 83500 198000 (2011) 33400 (2002) 61900 34600 36800 41200 42500 52200 68000 72500 109000 137000
2020-08-10 19:00 16.85 83600 198000 (2011) 33400 (2002) 61900 34600 36800 41200 42500 52200 68000 72500 109000 137000
2020-08-10 18:00 16.86 83700 198000 (2011) 33400 (2002) 61900 34600 36800 41200 42500 52200 68000 72500 109000 137000
2020-08-10 17:00 16.83 83500 198000 (2011) 33400 (2002) 61900 34600 36800 41200 42500 52200 68000 72500 109000 137000
2020-08-10 16:00 16.90 84000 198000 (2011) 33400 (2002) 61900 34600 36800 41200 42500 52200 68000 72500 109000 137000
2020-08-10 15:00 16.97 84500 198000 (2011) 33400 (2002) 61900 34600 36800 41200 42500 52200 68000 72500 109000 137000
2020-08-10 14:00 17.00 84800 198000 (2011) 33400 (2002) 61900 34600 36800 41200 42500 52200 68000 72500 109000 137000
2020-08-10 13:00 16.96 84400 198000 (2011) 33400 (2002) 61900 34600 36800 41200 42500 52200 68000 72500 109000 137000
2020-08-10 12:00 17.03 85000 198000 (2011) 33400 (2002) 61900 34600 36800 41200 42500 52200 68000 72500 109000 137000
2020-08-10 11:00 17.08 85400 198000 (2011) 33400 (2002) 61900 34600 36800 41200 42500 52200 68000 72500 109000 137000
2020-08-10 10:00 17.13 85800 198000 (2011) 33400 (2002) 61900 34600 36800 41200 42500 52200 68000 72500 109000 137000
2020-08-10 09:00 17.15 85900 198000 (2011) 33400 (2002) 61900 34600 36800 41200 42500 52200 68000 72500 109000 137000
2020-08-10 08:00 17.17 86100 198000 (2011) 33400 (2002) 61900 34600 36800 41200 42500 52200 68000 72500 109000 137000
2020-08-10 07:00 17.21 86400 198000 (2011) 33400 (2002) 61900 34600 36800 41200 42500 52200 68000 72500 109000 137000
2020-08-10 06:00 17.24 86600 198000 (2011) 33400 (2002) 61900 34600 36800 41200 42500 52200 68000 72500 109000 137000
2020-08-10 05:00 17.25 86700 198000 (2011) 33400 (2002) 61900 34600 36800 41200 42500 52200 68000 72500 109000 137000
2020-08-10 04:00 17.27 86900 198000 (2011) 33400 (2002) 61900 34600 36800 41200 42500 52200 68000 72500 109000 137000
2020-08-10 03:00 17.30 87100 198000 (2011) 33400 (2002) 61900 34600 36800 41200 42500 52200 68000 72500 109000 137000
2020-08-10 02:00 17.31 87200 198000 (2011) 33400 (2002) 61900 34600 36800 41200 42500 52200 68000 72500 109000 137000
2020-08-10 01:00 17.32 87200 198000 (2011) 33400 (2002) 61900 34600 36800 41200 42500 52200 68000 72500 109000 137000
2020-08-10 00:00 17.30 87100 198000 (2011) 33400 (2002) 61900 34600 36800 41200 42500 52200 68000 72500 109000 137000
2020-08-09 23:00 17.30 87100 200000 (2011) 31300 (2002) 61900 34700 36400 40900 42400 53700 67300 75500 95500 139000
2020-08-09 22:00 17.27 86900 200000 (2011) 31300 (2002) 61900 34700 36400 40900 42400 53700 67300 75500 95500 139000
2020-08-09 21:00 17.25 86700 200000 (2011) 31300 (2002) 61900 34700 36400 40900 42400 53700 67300 75500 95500 139000
2020-08-09 20:00 17.23 86500 200000 (2011) 31300 (2002) 61900 34700 36400 40900 42400 53700 67300 75500 95500 139000
2020-08-09 19:00 17.21 86400 200000 (2011) 31300 (2002) 61900 34700 36400 40900 42400 53700 67300 75500 95500 139000
2020-08-09 18:00 17.19 86200 200000 (2011) 31300 (2002) 61900 34700 36400 40900 42400 53700 67300 75500 95500 139000
2020-08-09 17:00 17.12 85700 200000 (2011) 31300 (2002) 61900 34700 36400 40900 42400 53700 67300 75500 95500 139000
2020-08-09 16:00 17.12 85700 200000 (2011) 31300 (2002) 61900 34700 36400 40900 42400 53700 67300 75500 95500 139000
2020-08-09 15:00 17.13 85800 200000 (2011) 31300 (2002) 61900 34700 36400 40900 42400 53700 67300 75500 95500 139000
2020-08-09 14:00 17.08 85400 200000 (2011) 31300 (2002) 61900 34700 36400 40900 42400 53700 67300 75500 95500 139000
2020-08-09 13:00 16.97 84500 200000 (2011) 31300 (2002) 61900 34700 36400 40900 42400 53700 67300 75500 95500 139000
2020-08-09 12:00 16.94 84300 200000 (2011) 31300 (2002) 61900 34700 36400 40900 42400 53700 67300 75500 95500 139000
2020-08-09 11:00 17.01 84800 200000 (2011) 31300 (2002) 61900 34700 36400 40900 42400 53700 67300 75500 95500 139000
2020-08-09 10:00 17.00 84800 200000 (2011) 31300 (2002) 61900 34700 36400 40900 42400 53700 67300 75500 95500 139000
2020-08-09 09:00 16.90 84000 200000 (2011) 31300 (2002) 61900 34700 36400 40900 42400 53700 67300 75500 95500 139000
2020-08-09 08:00 16.85 83600 200000 (2011) 31300 (2002) 61900 34700 36400 40900 42400 53700 67300 75500 95500 139000
2020-08-09 07:00 16.89 83900 200000 (2011) 31300 (2002) 61900 34700 36400 40900 42400 53700 67300 75500 95500 139000
2020-08-09 06:00 16.84 83500 200000 (2011) 31300 (2002) 61900 34700 36400 40900 42400 53700 67300 75500 95500 139000
2020-08-09 05:00 16.86 83700 200000 (2011) 31300 (2002) 61900 34700 36400 40900 42400 53700 67300 75500 95500 139000
2020-08-09 04:00 16.81 83300 200000 (2011) 31300 (2002) 61900 34700 36400 40900 42400 53700 67300 75500 95500 139000
2020-08-09 03:00 16.76 82900 200000 (2011) 31300 (2002) 61900 34700 36400 40900 42400 53700 67300 75500 95500 139000
2020-08-09 02:00 16.78 83100 200000 (2011) 31300 (2002) 61900 34700 36400 40900 42400 53700 67300 75500 95500 139000
2020-08-09 01:00 16.78 83100 200000 (2011) 31300 (2002) 61900 34700 36400 40900 42400 53700 67300 75500 95500 139000
2020-08-09 00:00 16.74 82800 200000 (2011) 31300 (2002) 61900 34700 36400 40900 42400 53700 67300 75500 95500 139000
2020-08-08 23:00 16.71 82500 202000 (2011) 30600 (2002) 61900 34900 35500 41100 41900 52800 67300 72400 91000 139000
2020-08-08 22:00 16.62 81900 202000 (2011) 30600 (2002) 61900 34900 35500 41100 41900 52800 67300 72400 91000 139000
2020-08-08 21:00 16.55 81300 202000 (2011) 30600 (2002) 61900 34900 35500 41100 41900 52800 67300 72400 91000 139000
2020-08-08 20:00 16.55 81300 202000 (2011) 30600 (2002) 61900 34900 35500 41100 41900 52800 67300 72400 91000 139000
2020-08-08 19:00 16.48 80800 202000 (2011) 30600 (2002) 61900 34900 35500 41100 41900 52800 67300 72400 91000 139000
2020-08-08 18:00 16.44 80500 202000 (2011) 30600 (2002) 61900 34900 35500 41100 41900 52800 67300 72400 91000 139000
2020-08-08 17:00 16.44 80500 202000 (2011) 30600 (2002) 61900 34900 35500 41100 41900 52800 67300 72400 91000 139000
2020-08-08 16:00 16.35 79900 202000 (2011) 30600 (2002) 61900 34900 35500 41100 41900 52800 67300 72400 91000 139000
2020-08-08 15:00 16.35 79900 202000 (2011) 30600 (2002) 61900 34900 35500 41100 41900 52800 67300 72400 91000 139000
2020-08-08 14:00 16.30 79500 202000 (2011) 30600 (2002) 61900 34900 35500 41100 41900 52800 67300 72400 91000 139000
2020-08-08 13:00 16.25 79100 202000 (2011) 30600 (2002) 61900 34900 35500 41100 41900 52800 67300 72400 91000 139000
2020-08-08 12:00 16.27 79300 202000 (2011) 30600 (2002) 61900 34900 35500 41100 41900 52800 67300 72400 91000 139000
2020-08-08 11:00 16.19 78700 202000 (2011) 30600 (2002) 61900 34900 35500 41100 41900 52800 67300 72400 91000 139000
2020-08-08 10:00 16.23 79000 202000 (2011) 30600 (2002) 61900 34900 35500 41100 41900 52800 67300 72400 91000 139000
2020-08-08 09:00 16.20 78700 202000 (2011) 30600 (2002) 61900 34900 35500 41100 41900 52800 67300 72400 91000 139000
2020-08-08 08:00 16.25 79100 202000 (2011) 30600 (2002) 61900 34900 35500 41100 41900 52800 67300 72400 91000 139000
2020-08-08 07:00 16.28 79300 202000 (2011) 30600 (2002) 61900 34900 35500 41100 41900 52800 67300 72400 91000 139000
2020-08-08 06:00 16.27 79300 202000 (2011) 30600 (2002) 61900 34900 35500 41100 41900 52800 67300 72400 91000 139000
2020-08-08 05:00 16.23 79000 202000 (2011) 30600 (2002) 61900 34900 35500 41100 41900 52800 67300 72400 91000 139000
2020-08-08 04:00 16.21 78800 202000 (2011) 30600 (2002) 61900 34900 35500 41100 41900 52800 67300 72400 91000 139000
2020-08-08 03:00 16.22 78900 202000 (2011) 30600 (2002) 61900 34900 35500 41100 41900 52800 67300 72400 91000 139000
2020-08-08 02:00 16.24 79000 202000 (2011) 30600 (2002) 61900 34900 35500 41100 41900 52800 67300 72400 91000 139000
2020-08-08 01:00 16.24 79000 202000 (2011) 30600 (2002) 61900 34900 35500 41100 41900 52800 67300 72400 91000 139000
2020-08-08 00:00 16.22 78900 202000 (2011) 30600 (2002) 61900 34900 35500 41100 41900 52800 67300 72400 91000 139000
2020-08-07 23:00 16.24 79000 203000 (2011) 30400 (2002) 62000 35000 35600 40900 42300 53800 70100 74500 85400 134000
2020-08-07 22:00 16.23 79000 203000 (2011) 30400 (2002) 62000 35000 35600 40900 42300 53800 70100 74500 85400 134000
2020-08-07 21:00 16.18 78600 203000 (2011) 30400 (2002) 62000 35000 35600 40900 42300 53800 70100 74500 85400 134000
2020-08-07 20:00 16.16 78500 203000 (2011) 30400 (2002) 62000 35000 35600 40900 42300 53800 70100 74500 85400 134000
2020-08-07 19:00 16.13 78200 203000 (2011) 30400 (2002) 62000 35000 35600 40900 42300 53800 70100 74500 85400 134000
2020-08-07 18:00 16.16 78500 203000 (2011) 30400 (2002) 62000 35000 35600 40900 42300 53800 70100 74500 85400 134000
2020-08-07 17:00 16.15 78400 203000 (2011) 30400 (2002) 62000 35000 35600 40900 42300 53800 70100 74500 85400 134000
2020-08-07 16:00 16.21 78800 203000 (2011) 30400 (2002) 62000 35000 35600 40900 42300 53800 70100 74500 85400 134000
2020-08-07 15:00 16.21 78800 203000 (2011) 30400 (2002) 62000 35000 35600 40900 42300 53800 70100 74500 85400 134000
2020-08-07 14:00 16.15 78400 203000 (2011) 30400 (2002) 62000 35000 35600 40900 42300 53800 70100 74500 85400 134000
2020-08-07 13:00 16.13 78200 203000 (2011) 30400 (2002) 62000 35000 35600 40900 42300 53800 70100 74500 85400 134000
2020-08-07 12:00 16.19 78700 203000 (2011) 30400 (2002) 62000 35000 35600 40900 42300 53800 70100 74500 85400 134000
2020-08-07 11:00 16.20 78700 203000 (2011) 30400 (2002) 62000 35000 35600 40900 42300 53800 70100 74500 85400 134000
2020-08-07 10:00 16.16 78500 203000 (2011) 30400 (2002) 62000 35000 35600 40900 42300 53800 70100 74500 85400 134000
2020-08-07 09:00 16.18 78600 203000 (2011) 30400 (2002) 62000 35000 35600 40900 42300 53800 70100 74500 85400 134000
2020-08-07 08:00 16.13 78200 203000 (2011) 30400 (2002) 62000 35000 35600 40900 42300 53800 70100 74500 85400 134000
2020-08-07 07:00 16.14 78300 203000 (2011) 30400 (2002) 62000 35000 35600 40900 42300 53800 70100 74500 85400 134000
2020-08-07 06:00 16.18 78600 203000 (2011) 30400 (2002) 62000 35000 35600 40900 42300 53800 70100 74500 85400 134000
2020-08-07 05:00 16.17 78500 203000 (2011) 30400 (2002) 62000 35000 35600 40900 42300 53800 70100 74500 85400 134000
2020-08-07 04:00 16.17 78500 203000 (2011) 30400 (2002) 62000 35000 35600 40900 42300 53800 70100 74500 85400 134000
2020-08-07 03:00 16.20 78700 203000 (2011) 30400 (2002) 62000 35000 35600 40900 42300 53800 70100 74500 85400 134000
2020-08-07 02:00 16.18 78600 203000 (2011) 30400 (2002) 62000 35000 35600 40900 42300 53800 70100 74500 85400 134000
2020-08-07 01:00 16.14 78300 203000 (2011) 30400 (2002) 62000 35000 35600 40900 42300 53800 70100 74500 85400 134000
2020-08-07 00:00 16.14 78300 203000 (2011) 30400 (2002) 62000 35000 35600 40900 42300 53800 70100 74500 85400 134000
2020-08-06 23:00 16.15 78400 205000 (1993) 30400 (2002) 62700 35100 35500 41000 43000 53000 72000 76200 83300 130000
2020-08-06 22:00 16.15 78400 205000 (1993) 30400 (2002) 62700 35100 35500 41000 43000 53000 72000 76200 83300 130000
2020-08-06 21:00 16.18 78600 205000 (1993) 30400 (2002) 62700 35100 35500 41000 43000 53000 72000 76200 83300 130000
2020-08-06 20:00 16.21 78800 205000 (1993) 30400 (2002) 62700 35100 35500 41000 43000 53000 72000 76200 83300 130000
2020-08-06 19:00 16.16 78500 205000 (1993) 30400 (2002) 62700 35100 35500 41000 43000 53000 72000 76200 83300 130000
2020-08-06 18:00 16.11 78100 205000 (1993) 30400 (2002) 62700 35100 35500 41000 43000 53000 72000 76200 83300 130000
2020-08-06 17:00 16.07 77800 205000 (1993) 30400 (2002) 62700 35100 35500 41000 43000 53000 72000 76200 83300 130000
2020-08-06 16:00 16.14 76100 205000 (1993) 30400 (2002) 62700 35100 35500 41000 43000 53000 72000 76200 83300 130000
2020-08-06 15:00 16.18 76400 205000 (1993) 30400 (2002) 62700 35100 35500 41000 43000 53000 72000 76200 83300 130000
2020-08-06 14:00 16.17 76400 205000 (1993) 30400 (2002) 62700 35100 35500 41000 43000 53000 72000 76200 83300 130000
2020-08-06 13:00 16.16 76300 205000 (1993) 30400 (2002) 62700 35100 35500 41000 43000 53000 72000 76200 83300 130000
2020-08-06 12:00 16.19 76500 205000 (1993) 30400 (2002) 62700 35100 35500 41000 43000 53000 72000 76200 83300 130000
2020-08-06 11:00 16.18 76400 205000 (1993) 30400 (2002) 62700 35100 35500 41000 43000 53000 72000 76200 83300 130000
2020-08-06 10:00 16.10 75900 205000 (1993) 30400 (2002) 62700 35100 35500 41000 43000 53000 72000 76200 83300 130000
2020-08-06 09:00 16.08 75700 205000 (1993) 30400 (2002) 62700 35100 35500 41000 43000 53000 72000 76200 83300 130000
2020-08-06 08:00 16.12 76000 205000 (1993) 30400 (2002) 62700 35100 35500 41000 43000 53000 72000 76200 83300 130000
2020-08-06 07:00 16.04 75400 205000 (1993) 30400 (2002) 62700 35100 35500 41000 43000 53000 72000 76200 83300 130000
2020-08-06 06:00 16.05 75500 205000 (1993) 30400 (2002) 62700 35100 35500 41000 43000 53000 72000 76200 83300 130000
2020-08-06 05:00 15.99 75100 205000 (1993) 30400 (2002) 62700 35100 35500 41000 43000 53000 72000 76200 83300 130000
2020-08-06 04:00 15.98 75000 205000 (1993) 30400 (2002) 62700 35100 35500 41000 43000 53000 72000 76200 83300 130000
2020-08-06 03:00 15.95 74800 205000 (1993) 30400 (2002) 62700 35100 35500 41000 43000 53000 72000 76200 83300 130000
2020-08-06 02:00 15.96 74900 205000 (1993) 30400 (2002) 62700 35100 35500 41000 43000 53000 72000 76200 83300 130000
2020-08-06 01:00 15.90 74400 205000 (1993) 30400 (2002) 62700 35100 35500 41000 43000 53000 72000 76200 83300 130000
2020-08-06 00:00 15.85 74100 205000 (1993) 30400 (2002) 62700 35100 35500 41000 43000 53000 72000 76200 83300 130000
2020-08-05 23:00 15.85 74100 220000 (1993) 30600 (2002) 63200 34900 36200 40600 43100 53000 75400 78600 82700 129000
2020-08-05 22:00 15.85 74100 220000 (1993) 30600 (2002) 63200 34900 36200 40600 43100 53000 75400 78600 82700 129000
2020-08-05 21:00 15.82 73900 220000 (1993) 30600 (2002) 63200 34900 36200 40600 43100 53000 75400 78600 82700 129000
2020-08-05 20:00 15.77 73500 220000 (1993) 30600 (2002) 63200 34900 36200 40600 43100 53000 75400 78600 82700 129000
2020-08-05 19:00 15.75 73400 220000 (1993) 30600 (2002) 63200 34900 36200 40600 43100 53000 75400 78600 82700 129000
2020-08-05 18:00 15.70 73000 220000 (1993) 30600 (2002) 63200 34900 36200 40600 43100 53000 75400 78600 82700 129000
2020-08-05 17:00 15.72 73200 220000 (1993) 30600 (2002) 63200 34900 36200 40600 43100 53000 75400 78600 82700 129000
2020-08-05 16:00 15.74 73300 220000 (1993) 30600 (2002) 63200 34900 36200 40600 43100 53000 75400 78600 82700 129000
2020-08-05 15:00 15.75 73400 220000 (1993) 30600 (2002) 63200 34900 36200 40600 43100 53000 75400 78600 82700 129000
2020-08-05 14:00 15.77 73500 220000 (1993) 30600 (2002) 63200 34900 36200 40600 43100 53000 75400 78600 82700 129000
2020-08-05 13:00 15.78 73600 220000 (1993) 30600 (2002) 63200 34900 36200 40600 43100 53000 75400 78600 82700 129000
2020-08-05 12:00 15.74 73300 220000 (1993) 30600 (2002) 63200 34900 36200 40600 43100 53000 75400 78600 82700 129000
2020-08-05 11:00 15.78 73600 220000 (1993) 30600 (2002) 63200 34900 36200 40600 43100 53000 75400 78600 82700 129000
2020-08-05 10:00 15.79 73700 220000 (1993) 30600 (2002) 63200 34900 36200 40600 43100 53000 75400 78600 82700 129000
2020-08-05 09:00 15.76 73500 220000 (1993) 30600 (2002) 63200 34900 36200 40600 43100 53000 75400 78600 82700 129000
2020-08-05 08:00 15.81 73800 220000 (1993) 30600 (2002) 63200 34900 36200 40600 43100 53000 75400 78600 82700 129000
2020-08-05 07:00 15.83 73900 220000 (1993) 30600 (2002) 63200 34900 36200 40600 43100 53000 75400 78600 82700 129000
2020-08-05 06:00 15.86 74200 220000 (1993) 30600 (2002) 63200 34900 36200 40600 43100 53000 75400 78600 82700 129000
2020-08-05 05:00 15.87 74200 220000 (1993) 30600 (2002) 63200 34900 36200 40600 43100 53000 75400 78600 82700 129000
2020-08-05 04:00 15.88 74300 220000 (1993) 30600 (2002) 63200 34900 36200 40600 43100 53000 75400 78600 82700 129000
2020-08-05 03:00 15.91 74500 220000 (1993) 30600 (2002) 63200 34900 36200 40600 43100 53000 75400 78600 82700 129000
2020-08-05 02:00 15.92 74600 220000 (1993) 30600 (2002) 63200 34900 36200 40600 43100 53000 75400 78600 82700 129000
2020-08-05 01:00 15.93 74600 220000 (1993) 30600 (2002) 63200 34900 36200 40600 43100 53000 75400 78600 82700 129000
2020-08-05 00:00 15.95 74800 220000 (1993) 30600 (2002) 63200 34900 36200 40600 43100 53000 75400 78600 82700 129000
2020-08-04 23:00 15.98 75000 242000 (1993) 30900 (2002) 64600 34600 37000 40700 43600 51600 76300 81000 95900 134000
2020-08-04 22:00 16.00 75100 242000 (1993) 30900 (2002) 64600 34600 37000 40700 43600 51600 76300 81000 95900 134000
2020-08-04 21:00 16.04 75400 242000 (1993) 30900 (2002) 64600 34600 37000 40700 43600 51600 76300 81000 95900 134000
2020-08-04 20:00 16.05 75500 242000 (1993) 30900 (2002) 64600 34600 37000 40700 43600 51600 76300 81000 95900 134000
2020-08-04 19:00 16.03 75400 242000 (1993) 30900 (2002) 64600 34600 37000 40700 43600 51600 76300 81000 95900 134000
2020-08-04 18:00 16.15 76200 242000 (1993) 30900 (2002) 64600 34600 37000 40700 43600 51600 76300 81000 95900 134000
2020-08-04 17:00 16.18 76400 242000 (1993) 30900 (2002) 64600 34600 37000 40700 43600 51600 76300 81000 95900 134000
2020-08-04 16:00 16.18 76400 242000 (1993) 30900 (2002) 64600 34600 37000 40700 43600 51600 76300 81000 95900 134000
2020-08-04 15:00 16.27 77100 242000 (1993) 30900 (2002) 64600 34600 37000 40700 43600 51600 76300 81000 95900 134000
2020-08-04 14:00 16.31 77400 242000 (1993) 30900 (2002) 64600 34600 37000 40700 43600 51600 76300 81000 95900 134000
2020-08-04 13:00 16.23 76800 242000 (1993) 30900 (2002) 64600 34600 37000 40700 43600 51600 76300 81000 95900 134000
2020-08-04 12:00 16.34 77600 242000 (1993) 30900 (2002) 64600 34600 37000 40700 43600 51600 76300 81000 95900 134000
2020-08-04 11:00 16.38 77900 242000 (1993) 30900 (2002) 64600 34600 37000 40700 43600 51600 76300 81000 95900 134000
2020-08-04 10:00 16.45 78400 242000 (1993) 30900 (2002) 64600 34600 37000 40700 43600 51600 76300 81000 95900 134000
2020-08-04 09:00 16.48 78600 242000 (1993) 30900 (2002) 64600 34600 37000 40700 43600 51600 76300 81000 95900 134000
2020-08-04 08:00 16.52 78900 242000 (1993) 30900 (2002) 64600 34600 37000 40700 43600 51600 76300 81000 95900 134000
2020-08-04 07:00 16.57 79300 242000 (1993) 30900 (2002) 64600 34600 37000 40700 43600 51600 76300 81000 95900 134000
2020-08-04 06:00 16.60 79500 242000 (1993) 30900 (2002) 64600 34600 37000 40700 43600 51600 76300 81000 95900 134000
2020-08-04 05:00 16.66 79900 242000 (1993) 30900 (2002) 64600 34600 37000 40700 43600 51600 76300 81000 95900 134000
2020-08-04 04:00 16.71 80300 242000 (1993) 30900 (2002) 64600 34600 37000 40700 43600 51600 76300 81000 95900 134000
2020-08-04 03:00 16.76 80700 242000 (1993) 30900 (2002) 64600 34600 37000 40700 43600 51600 76300 81000 95900 134000
2020-08-04 02:00 16.81 81000 242000 (1993) 30900 (2002) 64600 34600 37000 40700 43600 51600 76300 81000 95900 134000
2020-08-04 01:00 16.87 81500 242000 (1993) 30900 (2002) 64600 34600 37000 40700 43600 51600 76300 81000 95900 134000
2020-08-04 00:00 16.92 81900 242000 (1993) 30900 (2002) 64600 34600 37000 40700 43600 51600 76300 81000 95900 134000
2020-08-03 23:00 17.00 82500 267000 (1993) 31400 (2002) 65500 34400 36900 41800 42700 52300 75300 80200 99800 145000
2020-08-03 22:00 17.05 82800 267000 (1993) 31400 (2002) 65500 34400 36900 41800 42700 52300 75300 80200 99800 145000
2020-08-03 21:00 17.13 83500 267000 (1993) 31400 (2002) 65500 34400 36900 41800 42700 52300 75300 80200 99800 145000
2020-08-03 20:00 17.18 83800 267000 (1993) 31400 (2002) 65500 34400 36900 41800 42700 52300 75300 80200 99800 145000
2020-08-03 19:00 17.26 84400 267000 (1993) 31400 (2002) 65500 34400 36900 41800 42700 52300 75300 80200 99800 145000
2020-08-03 18:00 17.33 85000 267000 (1993) 31400 (2002) 65500 34400 36900 41800 42700 52300 75300 80200 99800 145000
2020-08-03 17:00 17.40 85500 267000 (1993) 31400 (2002) 65500 34400 36900 41800 42700 52300 75300 80200 99800 145000
2020-08-03 16:00 17.45 85900 267000 (1993) 31400 (2002) 65500 34400 36900 41800 42700 52300 75300 80200 99800 145000
2020-08-03 15:00 17.49 86200 267000 (1993) 31400 (2002) 65500 34400 36900 41800 42700 52300 75300 80200 99800 145000
2020-08-03 14:00 17.62 87200 267000 (1993) 31400 (2002) 65500 34400 36900 41800 42700 52300 75300 80200 99800 145000
2020-08-03 13:00 17.61 87200 267000 (1993) 31400 (2002) 65500 34400 36900 41800 42700 52300 75300 80200 99800 145000
2020-08-03 12:00 17.78 88500 267000 (1993) 31400 (2002) 65500 34400 36900 41800 42700 52300 75300 80200 99800 145000
2020-08-03 11:00 17.86 89100 267000 (1993) 31400 (2002) 65500 34400 36900 41800 42700 52300 75300 80200 99800 145000
2020-08-03 10:00 17.95 89900 267000 (1993) 31400 (2002) 65500 34400 36900 41800 42700 52300 75300 80200 99800 145000
2020-08-03 09:00 18.05 90700 267000 (1993) 31400 (2002) 65500 34400 36900 41800 42700 52300 75300 80200 99800 145000
2020-08-03 08:00 18.12 91200 267000 (1993) 31400 (2002) 65500 34400 36900 41800 42700 52300 75300 80200 99800 145000
2020-08-03 07:00 18.22 92100 267000 (1993) 31400 (2002) 65500 34400 36900 41800 42700 52300 75300 80200 99800 145000
2020-08-03 06:00 18.29 92600 267000 (1993) 31400 (2002) 65500 34400 36900 41800 42700 52300 75300 80200 99800 145000
2020-08-03 05:00 18.38 93400 267000 (1993) 31400 (2002) 65500 34400 36900 41800 42700 52300 75300 80200 99800 145000
2020-08-03 04:00 18.47 94100 267000 (1993) 31400 (2002) 65500 34400 36900 41800 42700 52300 75300 80200 99800 145000
2020-08-03 03:00 18.56 94900 267000 (1993) 31400 (2002) 65500 34400 36900 41800 42700 52300 75300 80200 99800 145000
2020-08-03 02:00 18.64 95500 267000 (1993) 31400 (2002) 65500 34400 36900 41800 42700 52300 75300 80200 99800 145000
2020-08-03 01:00 18.72 96200 267000 (1993) 31400 (2002) 65500 34400 36900 41800 42700 52300 75300 80200 99800 145000
2020-08-03 00:00 18.80 96900 267000 (1993) 31400 (2002) 65500 34400 36900 41800 42700 52300 75300 80200 99800 145000
2020-08-02 23:00 18.89 97600 299000 (1993) 31900 (2002) 67200 34000 36500 40500 41900 53400 72600 80700 116000 163000
2020-08-02 22:00 18.97 98300 299000 (1993) 31900 (2002) 67200 34000 36500 40500 41900 53400 72600 80700 116000 163000
2020-08-02 21:00 19.06 99100 299000 (1993) 31900 (2002) 67200 34000 36500 40500 41900 53400 72600 80700 116000 163000
2020-08-02 20:00 19.15 99900 299000 (1993) 31900 (2002) 67200 34000 36500 40500 41900 53400 72600 80700 116000 163000
2020-08-02 19:00 19.24 101000 299000 (1993) 31900 (2002) 67200 34000 36500 40500 41900 53400 72600 80700 116000 163000
2020-08-02 18:00 19.32 101000 299000 (1993) 31900 (2002) 67200 34000 36500 40500 41900 53400 72600 80700 116000 163000
2020-08-02 17:00 19.35 102000 299000 (1993) 31900 (2002) 67200 34000 36500 40500 41900 53400 72600 80700 116000 163000
2020-08-02 16:00 19.52 103000 299000 (1993) 31900 (2002) 67200 34000 36500 40500 41900 53400 72600 80700 116000 163000
2020-08-02 15:00 19.62 104000 299000 (1993) 31900 (2002) 67200 34000 36500 40500 41900 53400 72600 80700 116000 163000
2020-08-02 14:00 19.73 105000 299000 (1993) 31900 (2002) 67200 34000 36500 40500 41900 53400 72600 80700 116000 163000
2020-08-02 13:00 19.83 106000 299000 (1993) 31900 (2002) 67200 34000 36500 40500 41900 53400 72600 80700 116000 163000
2020-08-02 12:00 19.94 107000 299000 (1993) 31900 (2002) 67200 34000 36500 40500 41900 53400 72600 80700 116000 163000
2020-08-02 11:00 20.03 108000 299000 (1993) 31900 (2002) 67200 34000 36500 40500 41900 53400 72600 80700 116000 163000
2020-08-02 10:00 20.14 109000 299000 (1993) 31900 (2002) 67200 34000 36500 40500 41900 53400 72600 80700 116000 163000
2020-08-02 09:00 20.24 110000 299000 (1993) 31900 (2002) 67200 34000 36500 40500 41900 53400 72600 80700 116000 163000
2020-08-02 08:00 20.32 111000 299000 (1993) 31900 (2002) 67200 34000 36500 40500 41900 53400 72600 80700 116000 163000
2020-08-02 07:00 20.46 112000 299000 (1993) 31900 (2002) 67200 34000 36500 40500 41900 53400 72600 80700 116000 163000
2020-08-02 06:00 20.57 113000 299000 (1993) 31900 (2002) 67200 34000 36500 40500 41900 53400 72600 80700 116000 163000
2020-08-02 05:00 20.67 114000 299000 (1993) 31900 (2002) 67200 34000 36500 40500 41900 53400 72600 80700 116000 163000
2020-08-02 04:00 20.80 115000 299000 (1993) 31900 (2002) 67200 34000 36500 40500 41900 53400 72600 80700 116000 163000
2020-08-02 03:00 20.92 117000 299000 (1993) 31900 (2002) 67200 34000 36500 40500 41900 53400 72600 80700 116000 163000
2020-08-02 02:00 21.08 118000 299000 (1993) 31900 (2002) 67200 34000 36500 40500 41900 53400 72600 80700 116000 163000
2020-08-02 01:00 21.25 120000 299000 (1993) 31900 (2002) 67200 34000 36500 40500 41900 53400 72600 80700 116000 163000
2020-08-02 00:00 21.44 122000 299000 (1993) 31900 (2002) 67200 34000 36500 40500 41900 53400 72600 80700 116000 163000
2020-08-01 23:00 21.64 124000 332000 (1993) 32700 (1991) 69500 34200 36500 40200 42000 55000 72400 81100 123000 179000
2020-08-01 22:00 21.87 127000 332000 (1993) 32700 (1991) 69500 34200 36500 40200 42000 55000 72400 81100 123000 179000
2020-08-01 21:00 22.00 128000 332000 (1993) 32700 (1991) 69500 34200 36500 40200 42000 55000 72400 81100 123000 179000
2020-08-01 20:00 22.27 131000 332000 (1993) 32700 (1991) 69500 34200 36500 40200 42000 55000 72400 81100 123000 179000
2020-08-01 19:00 22.48 134000 332000 (1993) 32700 (1991) 69500 34200 36500 40200 42000 55000 72400 81100 123000 179000
2020-08-01 18:00 22.74 137000 332000 (1993) 32700 (1991) 69500 34200 36500 40200 42000 55000 72400 81100 123000 179000
2020-08-01 17:00 22.92 139000 332000 (1993) 32700 (1991) 69500 34200 36500 40200 42000 55000 72400 81100 123000 179000
2020-08-01 16:00 23.07 141000 332000 (1993) 32700 (1991) 69500 34200 36500 40200 42000 55000 72400 81100 123000 179000
2020-08-01 15:00 23.27 143000 332000 (1993) 32700 (1991) 69500 34200 36500 40200 42000 55000 72400 81100 123000 179000
2020-08-01 14:00 23.43 145000 332000 (1993) 32700 (1991) 69500 34200 36500 40200 42000 55000 72400 81100 123000 179000
2020-08-01 13:00 23.60 147000 332000 (1993) 32700 (1991) 69500 34200 36500 40200 42000 55000 72400 81100 123000 179000
2020-08-01 12:00 23.67 148000 332000 (1993) 32700 (1991) 69500 34200 36500 40200 42000 55000 72400 81100 123000 179000
2020-08-01 11:00 23.90 151000 332000 (1993) 32700 (1991) 69500 34200 36500 40200 42000 55000 72400 81100 123000 179000
2020-08-01 10:00 24.07 153000 332000 (1993) 32700 (1991) 69500 34200 36500 40200 42000 55000 72400 81100 123000 179000
2020-08-01 09:00 24.15 154000 332000 (1993) 32700 (1991) 69500 34200 36500 40200 42000 55000 72400 81100 123000 179000
2020-08-01 08:00 24.34 156000 332000 (1993) 32700 (1991) 69500 34200 36500 40200 42000 55000 72400 81100 123000 179000
2020-08-01 07:00 24.57 159000 332000 (1993) 32700 (1991) 69500 34200 36500 40200 42000 55000 72400 81100 123000 179000
2020-08-01 06:00 24.74 161000 332000 (1993) 32700 (1991) 69500 34200 36500 40200 42000 55000 72400 81100 123000 179000
2020-08-01 05:00 24.89 163000 332000 (1993) 32700 (1991) 69500 34200 36500 40200 42000 55000 72400 81100 123000 179000
2020-08-01 04:00 25.04 165000 332000 (1993) 32700 (1991) 69500 34200 36500 40200 42000 55000 72400 81100 123000 179000
2020-08-01 03:00 25.03 165000 332000 (1993) 32700 (1991) 69500 34200 36500 40200 42000 55000 72400 81100 123000 179000
2020-08-01 02:00 24.93 164000 332000 (1993) 32700 (1991) 69500 34200 36500 40200 42000 55000 72400 81100 123000 179000
2020-08-01 01:00 24.95 164000 332000 (1993) 32700 (1991) 69500 34200 36500 40200 42000 55000 72400 81100 123000 179000
2020-08-01 00:00 25.06 166000 332000 (1993) 32700 (1991) 69500 34200 36500 40200 42000 55000 72400 81100 123000 179000
2020-07-31 23:00 25.08 166000 414000 (1993) 33300 (1991) 71700 34500 36700 39800 42200 56400 73800 86200 121000 159000
2020-07-31 22:00 24.96 164000 414000 (1993) 33300 (1991) 71700 34500 36700 39800 42200 56400 73800 86200 121000 159000
2020-07-31 21:00 24.79 162000 414000 (1993) 33300 (1991) 71700 34500 36700 39800 42200 56400 73800 86200 121000 159000
2020-07-31 20:00 24.47 158000 414000 (1993) 33300 (1991) 71700 34500 36700 39800 42200 56400 73800 86200 121000 159000
2020-07-31 19:00 24.38 157000 414000 (1993) 33300 (1991) 71700 34500 36700 39800 42200 56400 73800 86200 121000 159000
2020-07-31 18:00 24.36 157000 414000 (1993) 33300 (1991) 71700 34500 36700 39800 42200 56400 73800 86200 121000 159000
2020-07-31 17:00 24.22 155000 414000 (1993) 33300 (1991) 71700 34500 36700 39800 42200 56400 73800 86200 121000 159000
2020-07-31 16:00 23.85 150000 414000 (1993) 33300 (1991) 71700 34500 36700 39800 42200 56400 73800 86200 121000 159000
2020-07-31 15:00 23.62 147000 414000 (1993) 33300 (1991) 71700 34500 36700 39800 42200 56400 73800 86200 121000 159000
2020-07-31 14:00 23.45 145000 414000 (1993) 33300 (1991) 71700 34500 36700 39800 42200 56400 73800 86200 121000 159000
2020-07-31 13:00 23.30 143000 414000 (1993) 33300 (1991) 71700 34500 36700 39800 42200 56400 73800 86200 121000 159000
2020-07-31 12:00 22.93 139000 414000 (1993) 33300 (1991) 71700 34500 36700 39800 42200 56400 73800 86200 121000 159000
2020-07-31 11:00 22.63 135000 414000 (1993) 33300 (1991) 71700 34500 36700 39800 42200 56400 73800 86200 121000 159000
2020-07-31 10:00 22.44 133000 414000 (1993) 33300 (1991) 71700 34500 36700 39800 42200 56400 73800 86200 121000 159000
2020-07-31 09:00 22.13 130000 414000 (1993) 33300 (1991) 71700 34500 36700 39800 42200 56400 73800 86200 121000 159000
2020-07-31 08:00 21.81 126000 414000 (1993) 33300 (1991) 71700 34500 36700 39800 42200 56400 73800 86200 121000 159000
2020-07-31 07:00 21.31 121000 414000 (1993) 33300 (1991) 71700 34500 36700 39800 42200 56400 73800 86200 121000 159000
2020-07-31 06:00 21.19 120000 414000 (1993) 33300 (1991) 71700 34500 36700 39800 42200 56400 73800 86200 121000 159000
2020-07-31 05:00 20.91 117000 414000 (1993) 33300 (1991) 71700 34500 36700 39800 42200 56400 73800 86200 121000 159000
2020-07-31 04:00 20.73 115000 414000 (1993) 33300 (1991) 71700 34500 36700 39800 42200 56400 73800 86200 121000 159000
2020-07-31 03:00 20.38 111000 414000 (1993) 33300 (1991) 71700 34500 36700 39800 42200 56400 73800 86200 121000 159000
2020-07-31 02:00 20.18 109000 414000 (1993) 33300 (1991) 71700 34500 36700 39800 42200 56400 73800 86200 121000 159000
2020-07-31 01:00 20.08 108000 414000 (1993) 33300 (1991) 71700 34500 36700 39800 42200 56400 73800 86200 121000 159000
2020-07-31 00:00 19.92 107000 414000 (1993) 33300 (1991) 71700 34500 36700 39800 42200 56400 73800 86200 121000 159000
2020-07-30 23:00 19.74 105000 536000 (1993) 33000 (2006) 73000 34800 37500 41200 43600 58400 79900 83300 95200 156000
2020-07-30 22:00 19.49 103000 536000 (1993) 33000 (2006) 73000 34800 37500 41200 43600 58400 79900 83300 95200 156000
2020-07-30 21:00 19.25 101000 536000 (1993) 33000 (2006) 73000 34800 37500 41200 43600 58400 79900 83300 95200 156000
2020-07-30 20:00 19.05 99000 536000 (1993) 33000 (2006) 73000 34800 37500 41200 43600 58400 79900 83300 95200 156000
2020-07-30 19:00 18.86 97400 536000 (1993) 33000 (2006) 73000 34800 37500 41200 43600 58400 79900 83300 95200 156000
2020-07-30 18:00 18.70 96000 536000 (1993) 33000 (2006) 73000 34800 37500 41200 43600 58400 79900 83300 95200 156000
2020-07-30 17:00 18.63 95400 536000 (1993) 33000 (2006) 73000 34800 37500 41200 43600 58400 79900 83300 95200 156000
2020-07-30 16:00 18.46 94000 536000 (1993) 33000 (2006) 73000 34800 37500 41200 43600 58400 79900 83300 95200 156000
2020-07-30 15:00 18.36 93200 536000 (1993) 33000 (2006) 73000 34800 37500 41200 43600 58400 79900 83300 95200 156000
2020-07-30 14:00 18.21 92000 536000 (1993) 33000 (2006) 73000 34800 37500 41200 43600 58400 79900 83300 95200 156000
2020-07-30 13:00 18.10 91100 536000 (1993) 33000 (2006) 73000 34800 37500 41200 43600 58400 79900 83300 95200 156000
2020-07-30 12:00 18.01 90400 536000 (1993) 33000 (2006) 73000 34800 37500 41200 43600 58400 79900 83300 95200 156000
2020-07-30 11:00 17.87 89200 536000 (1993) 33000 (2006) 73000 34800 37500 41200 43600 58400 79900 83300 95200 156000
2020-07-30 10:00 17.80 88700 536000 (1993) 33000 (2006) 73000 34800 37500 41200 43600 58400 79900 83300 95200 156000
2020-07-30 09:00 17.72 88000 536000 (1993) 33000 (2006) 73000 34800 37500 41200 43600 58400 79900 83300 95200 156000
2020-07-30 08:00 17.60 87100 536000 (1993) 33000 (2006) 73000 34800 37500 41200 43600 58400 79900 83300 95200 156000
2020-07-30 07:00 17.48 86200 536000 (1993) 33000 (2006) 73000 34800 37500 41200 43600 58400 79900 83300 95200 156000
2020-07-30 06:00 17.42 85700 536000 (1993) 33000 (2006) 73000 34800 37500 41200 43600 58400 79900 83300 95200 156000
2020-07-30 05:00 17.38 85400 536000 (1993) 33000 (2006) 73000 34800 37500 41200 43600 58400 79900 83300 95200 156000
2020-07-30 04:00 17.24 84300 536000 (1993) 33000 (2006) 73000 34800 37500 41200 43600 58400 79900 83300 95200 156000
2020-07-30 03:00 17.21 84100 536000 (1993) 33000 (2006) 73000 34800 37500 41200 43600 58400 79900 83300 95200 156000
2020-07-30 02:00 17.17 83800 536000 (1993) 33000 (2006) 73000 34800 37500 41200 43600 58400 79900 83300 95200 156000
2020-07-30 01:00 17.08 83100 536000 (1993) 33000 (2006) 73000 34800 37500 41200 43600 58400 79900 83300 95200 156000
2020-07-30 00:00 17.06 82900 536000 (1993) 33000 (2006) 73000 34800 37500 41200 43600 58400 79900 83300 95200 156000
2020-07-29 23:00 16.98 82300 587000 (1993) 32600 (2002) 74500 34100 37300 40100 42100 59900 75900 81500 112000 164000
2020-07-29 22:00 16.90 81700 587000 (1993) 32600 (2002) 74500 34100 37300 40100 42100 59900 75900 81500 112000 164000
2020-07-29 21:00 17.02 82600 587000 (1993) 32600 (2002) 74500 34100 37300 40100 42100 59900 75900 81500 112000 164000
2020-07-29 20:00 17.02 82600 587000 (1993) 32600 (2002) 74500 34100 37300 40100 42100 59900 75900 81500 112000 164000
2020-07-29 19:00 16.99 82400 587000 (1993) 32600 (2002) 74500 34100 37300 40100 42100 59900 75900 81500 112000 164000
2020-07-29 18:00 16.98 82300 587000 (1993) 32600 (2002) 74500 34100 37300 40100 42100 59900 75900 81500 112000 164000
2020-07-29 17:00 16.97 82200 587000 (1993) 32600 (2002) 74500 34100 37300 40100 42100 59900 75900 81500 112000 164000
2020-07-29 16:00 17.03 82700 587000 (1993) 32600 (2002) 74500 34100 37300 40100 42100 59900 75900 81500 112000 164000
2020-07-29 15:00 17.02 82600 587000 (1993) 32600 (2002) 74500 34100 37300 40100 42100 59900 75900 81500 112000 164000
2020-07-29 14:00 16.92 81900 587000 (1993) 32600 (2002) 74500 34100 37300 40100 42100 59900 75900 81500 112000 164000
2020-07-29 13:00 16.92 81900 587000 (1993) 32600 (2002) 74500 34100 37300 40100 42100 59900 75900 81500 112000 164000
2020-07-29 12:00 16.94 82000 587000 (1993) 32600 (2002) 74500 34100 37300 40100 42100 59900 75900 81500 112000 164000
2020-07-29 11:00 16.99 82400 587000 (1993) 32600 (2002) 74500 34100 37300 40100 42100 59900 75900 81500 112000 164000
2020-07-29 10:00 17.02 82600 587000 (1993) 32600 (2002) 74500 34100 37300 40100 42100 59900 75900 81500 112000 164000
2020-07-29 09:00 17.01 82500 587000 (1993) 32600 (2002) 74500 34100 37300 40100 42100 59900 75900 81500 112000 164000
2020-07-29 08:00 16.95 82100 587000 (1993) 32600 (2002) 74500 34100 37300 40100 42100 59900 75900 81500 112000 164000
2020-07-29 07:00 16.93 81900 587000 (1993) 32600 (2002) 74500 34100 37300 40100 42100 59900 75900 81500 112000 164000
2020-07-29 06:00 16.91 81800 587000 (1993) 32600 (2002) 74500 34100 37300 40100 42100 59900 75900 81500 112000 164000
2020-07-29 05:00 16.89 81600 587000 (1993) 32600 (2002) 74500 34100 37300 40100 42100 59900 75900 81500 112000 164000
2020-07-29 04:00 16.87 81500 587000 (1993) 32600 (2002) 74500 34100 37300 40100 42100 59900 75900 81500 112000 164000
2020-07-29 03:00 16.85 81300 587000 (1993) 32600 (2002) 74500 34100 37300 40100 42100 59900 75900 81500 112000 164000
2020-07-29 02:00 16.81 81000 587000 (1993) 32600 (2002) 74500 34100 37300 40100 42100 59900 75900 81500 112000 164000
2020-07-29 01:00 16.74 80500 587000 (1993) 32600 (2002) 74500 34100 37300 40100 42100 59900 75900 81500 112000 164000
2020-07-29 00:00 16.70 80200 587000 (1993) 32600 (2002) 74500 34100 37300 40100 42100 59900 75900 81500 112000 164000
2020-07-28 23:00 16.66 79900 611000 (1993) 31600 (2002) 77200 34400 37600 39500 41700 61400 79300 82200 127000 170000
2020-07-28 22:00 16.61 79600 611000 (1993) 31600 (2002) 77200 34400 37600 39500 41700 61400 79300 82200 127000 170000
2020-07-28 21:00 16.56 79200 611000 (1993) 31600 (2002) 77200 34400 37600 39500 41700 61400 79300 82200 127000 170000
2020-07-28 20:00 16.50 78700 611000 (1993) 31600 (2002) 77200 34400 37600 39500 41700 61400 79300 82200 127000 170000
2020-07-28 19:00 16.43 78200 611000 (1993) 31600 (2002) 77200 34400 37600 39500 41700 61400 79300 82200 127000 170000
2020-07-28 18:00 16.36 77700 611000 (1993) 31600 (2002) 77200 34400 37600 39500 41700 61400 79300 82200 127000 170000
2020-07-28 17:00 16.38 77900 611000 (1993) 31600 (2002) 77200 34400 37600 39500 41700 61400 79300 82200 127000 170000
2020-07-28 16:00 16.34 77600 611000 (1993) 31600 (2002) 77200 34400 37600 39500 41700 61400 79300 82200 127000 170000
2020-07-28 15:00 16.35 77700 611000 (1993) 31600 (2002) 77200 34400 37600 39500 41700 61400 79300 82200 127000 170000
2020-07-28 14:00 16.36 77700 611000 (1993) 31600 (2002) 77200 34400 37600 39500 41700 61400 79300 82200 127000 170000
2020-07-28 13:00 16.33 77500 611000 (1993) 31600 (2002) 77200 34400 37600 39500 41700 61400 79300 82200 127000 170000
2020-07-28 12:00 16.36 77700 611000 (1993) 31600 (2002) 77200 34400 37600 39500 41700 61400 79300 82200 127000 170000
2020-07-28 11:00 16.41 78100 611000 (1993) 31600 (2002) 77200 34400 37600 39500 41700 61400 79300 82200 127000 170000
2020-07-28 10:00 16.42 78200 611000 (1993) 31600 (2002) 77200 34400 37600 39500 41700 61400 79300 82200 127000 170000
2020-07-28 09:00 16.59 79400 611000 (1993) 31600 (2002) 77200 34400 37600 39500 41700 61400 79300 82200 127000 170000
2020-07-28 08:00 16.62 79600 611000 (1993) 31600 (2002) 77200 34400 37600 39500 41700 61400 79300 82200 127000 170000
2020-07-28 07:00 16.75 80600 611000 (1993) 31600 (2002) 77200 34400 37600 39500 41700 61400 79300 82200 127000 170000
2020-07-28 06:00 16.84 81300 611000 (1993) 31600 (2002) 77200 34400 37600 39500 41700 61400 79300 82200 127000 170000
2020-07-28 05:00 16.92 81900 611000 (1993) 31600 (2002) 77200 34400 37600 39500 41700 61400 79300 82200 127000 170000
2020-07-28 04:00 17.02 82600 611000 (1993) 31600 (2002) 77200 34400 37600 39500 41700 61400 79300 82200 127000 170000
2020-07-28 03:00 17.09 83200 611000 (1993) 31600 (2002) 77200 34400 37600 39500 41700 61400 79300 82200 127000 170000
2020-07-28 02:00 17.16 83700 611000 (1993) 31600 (2002) 77200 34400 37600 39500 41700 61400 79300 82200 127000 170000
2020-07-28 01:00 17.21 84100 611000 (1993) 31600 (2002) 77200 34400 37600 39500 41700 61400 79300 82200 127000 170000
2020-07-28 00:00 17.25 84400 611000 (1993) 31600 (2002) 77200 34400 37600 39500 41700 61400 79300 82200 127000 170000
2020-07-27 23:00 17.25 84400 567000 (1993) 31500 (2002) 75300 34800 37300 40100 42000 63200 79500 82500 94300 175000
2020-07-27 22:00 17.27 84500 567000 (1993) 31500 (2002) 75300 34800 37300 40100 42000 63200 79500 82500 94300 175000
2020-07-27 21:00 17.26 84400 567000 (1993) 31500 (2002) 75300 34800 37300 40100 42000 63200 79500 82500 94300 175000
2020-07-27 20:00 17.22 84100 567000 (1993) 31500 (2002) 75300 34800 37300 40100 42000 63200 79500 82500 94300 175000
2020-07-27 19:00 17.11 83300 567000 (1993) 31500 (2002) 75300 34800 37300 40100 42000 63200 79500 82500 94300 175000
2020-07-27 18:00 17.05 82800 567000 (1993) 31500 (2002) 75300 34800 37300 40100 42000 63200 79500 82500 94300 175000
2020-07-27 17:00 16.92 81900 567000 (1993) 31500 (2002) 75300 34800 37300 40100 42000 63200 79500 82500 94300 175000
2020-07-27 16:00 16.70 80200 567000 (1993) 31500 (2002) 75300 34800 37300 40100 42000 63200 79500 82500 94300 175000
2020-07-27 15:00 16.54 79000 567000 (1993) 31500 (2002) 75300 34800 37300 40100 42000 63200 79500 82500 94300 175000
2020-07-27 14:00 16.31 77400 567000 (1993) 31500 (2002) 75300 34800 37300 40100 42000 63200 79500 82500 94300 175000
2020-07-27 13:00 16.09 75800 567000 (1993) 31500 (2002) 75300 34800 37300 40100 42000 63200 79500 82500 94300 175000
2020-07-27 12:00 15.88 74300 567000 (1993) 31500 (2002) 75300 34800 37300 40100 42000 63200 79500 82500 94300 175000
2020-07-27 11:00 15.63 72600 567000 (1993) 31500 (2002) 75300 34800 37300 40100 42000 63200 79500 82500 94300 175000
2020-07-27 10:00 15.48 71500 567000 (1993) 31500 (2002) 75300 34800 37300 40100 42000 63200 79500 82500 94300 175000
2020-07-27 09:00 15.36 70700 567000 (1993) 31500 (2002) 75300 34800 37300 40100 42000 63200 79500 82500 94300 175000
2020-07-27 08:00 15.25 70000 567000 (1993) 31500 (2002) 75300 34800 37300 40100 42000 63200 79500 82500 94300 175000
2020-07-27 07:00 15.19 69600 567000 (1993) 31500 (2002) 75300 34800 37300 40100 42000 63200 79500 82500 94300 175000
2020-07-27 06:00 15.03 68500 567000 (1993) 31500 (2002) 75300 34800 37300 40100 42000 63200 79500 82500 94300 175000
2020-07-27 05:00 15.08 68800 567000 (1993) 31500 (2002) 75300 34800 37300 40100 42000 63200 79500 82500 94300 175000
2020-07-27 04:00 15.05 68600 567000 (1993) 31500 (2002) 75300 34800 37300 40100 42000 63200 79500 82500 94300 175000
2020-07-27 03:00 15.10 68900 567000 (1993) 31500 (2002) 75300 34800 37300 40100 42000 63200 79500 82500 94300 175000
2020-07-27 02:00 15.04 68500 567000 (1993) 31500 (2002) 75300 34800 37300 40100 42000 63200 79500 82500 94300 175000
2020-07-27 01:00 15.04 68500 567000 (1993) 31500 (2002) 75300 34800 37300 40100 42000 63200 79500 82500 94300 175000
2020-07-27 00:00 15.05 68600 567000 (1993) 31500 (2002) 75300 34800 37300 40100 42000 63200 79500 82500 94300 175000
2020-07-26 23:00 15.06 68700 476000 (1993) 31400 (2002) 72700 34900 37000 40700 41900 61400 76600 82000 106000 166000
2020-07-26 22:00 15.07 68700 476000 (1993) 31400 (2002) 72700 34900 37000 40700 41900 61400 76600 82000 106000 166000
2020-07-26 21:00 15.08 68800 476000 (1993) 31400 (2002) 72700 34900 37000 40700 41900 61400 76600 82000 106000 166000
2020-07-26 20:00 15.06 68700 476000 (1993) 31400 (2002) 72700 34900 37000 40700 41900 61400 76600 82000 106000 166000
2020-07-26 19:00 15.09 68900 476000 (1993) 31400 (2002) 72700 34900 37000 40700 41900 61400 76600 82000 106000 166000
2020-07-26 18:00 15.11 69000 476000 (1993) 31400 (2002) 72700 34900 37000 40700 41900 61400 76600 82000 106000 166000
2020-07-26 17:00 15.13 69100 476000 (1993) 31400 (2002) 72700 34900 37000 40700 41900 61400 76600 82000 106000 166000
2020-07-26 16:00 15.08 68800 476000 (1993) 31400 (2002) 72700 34900 37000 40700 41900 61400 76600 82000 106000 166000
2020-07-26 15:00 15.13 69100 476000 (1993) 31400 (2002) 72700 34900 37000 40700 41900 61400 76600 82000 106000 166000
2020-07-26 14:00 15.14 69200 476000 (1993) 31400 (2002) 72700 34900 37000 40700 41900 61400 76600 82000 106000 166000
2020-07-26 13:00 15.16 69300 476000 (1993) 31400 (2002) 72700 34900 37000 40700 41900 61400 76600 82000 106000 166000
2020-07-26 12:00 15.11 69000 476000 (1993) 31400 (2002) 72700 34900 37000 40700 41900 61400 76600 82000 106000 166000
2020-07-26 11:00 15.17 69400 476000 (1993) 31400 (2002) 72700 34900 37000 40700 41900 61400 76600 82000 106000 166000
2020-07-26 10:00 15.16 69300 476000 (1993) 31400 (2002) 72700 34900 37000 40700 41900 61400 76600 82000 106000 166000
2020-07-26 09:00 15.12 69100 476000 (1993) 31400 (2002) 72700 34900 37000 40700 41900 61400 76600 82000 106000 166000
2020-07-26 08:00 15.19 69600 476000 (1993) 31400 (2002) 72700 34900 37000 40700 41900 61400 76600 82000 106000 166000
2020-07-26 07:00 15.17 69400 476000 (1993) 31400 (2002) 72700 34900 37000 40700 41900 61400 76600 82000 106000 166000
2020-07-26 06:00 15.21 69700 476000 (1993) 31400 (2002) 72700 34900 37000 40700 41900 61400 76600 82000 106000 166000
2020-07-26 05:00 15.21 69700 476000 (1993) 31400 (2002) 72700 34900 37000 40700 41900 61400 76600 82000 106000 166000
2020-07-26 04:00 15.21 69700 476000 (1993) 31400 (2002) 72700 34900 37000 40700 41900 61400 76600 82000 106000 166000
2020-07-26 03:00 15.22 69800 476000 (1993) 31400 (2002) 72700 34900 37000 40700 41900 61400 76600 82000 106000 166000
2020-07-26 02:00 15.20 69600 476000 (1993) 31400 (2002) 72700 34900 37000 40700 41900 61400 76600 82000 106000 166000
2020-07-26 01:00 15.19 69600 476000 (1993) 31400 (2002) 72700 34900 37000 40700 41900 61400 76600 82000 106000 166000
2020-07-26 00:00 15.24 69900 476000 (1993) 31400 (2002) 72700 34900 37000 40700 41900 61400 76600 82000 106000 166000
2020-07-25 23:00 15.20 69600 405000 (1993) 31700 (2002) 71700 36000 37300 40700 42000 61200 82800 84700 98500 169000
2020-07-25 22:00 15.06 68700 405000 (1993) 31700 (2002) 71700 36000 37300 40700 42000 61200 82800 84700 98500 169000
2020-07-25 21:00 15.24 69900 405000 (1993) 31700 (2002) 71700 36000 37300 40700 42000 61200 82800 84700 98500 169000
2020-07-25 20:00 15.22 69800 405000 (1993) 31700 (2002) 71700 36000 37300 40700 42000 61200 82800 84700 98500 169000
2020-07-25 19:00 15.25 70000 405000 (1993) 31700 (2002) 71700 36000 37300 40700 42000 61200 82800 84700 98500 169000
2020-07-25 18:00 15.20 69600 405000 (1993) 31700 (2002) 71700 36000 37300 40700 42000 61200 82800 84700 98500 169000
2020-07-25 17:00 15.22 69800 405000 (1993) 31700 (2002) 71700 36000 37300 40700 42000 61200 82800 84700 98500 169000
2020-07-25 16:00 15.27 70100 405000 (1993) 31700 (2002) 71700 36000 37300 40700 42000 61200 82800 84700 98500 169000
2020-07-25 15:00 15.26 70000 405000 (1993) 31700 (2002) 71700 36000 37300 40700 42000 61200 82800 84700 98500 169000
2020-07-25 14:00 15.28 70200 405000 (1993) 31700 (2002) 71700 36000 37300 40700 42000 61200 82800 84700 98500 169000
2020-07-25 13:00 15.30 70300 405000 (1993) 31700 (2002) 71700 36000 37300 40700 42000 61200 82800 84700 98500 169000
2020-07-25 12:00 15.28 70200 405000 (1993) 31700 (2002) 71700 36000 37300 40700 42000 61200 82800 84700 98500 169000
2020-07-25 11:00 15.31 70400 405000 (1993) 31700 (2002) 71700 36000 37300 40700 42000 61200 82800 84700 98500 169000
2020-07-25 10:00 15.32 70400 405000 (1993) 31700 (2002) 71700 36000 37300 40700 42000 61200 82800 84700 98500 169000
2020-07-25 09:00 15.32 70400 405000 (1993) 31700 (2002) 71700 36000 37300 40700 42000 61200 82800 84700 98500 169000
2020-07-25 08:00 15.34 70600 405000 (1993) 31700 (2002) 71700 36000 37300 40700 42000 61200 82800 84700 98500 169000
2020-07-25 07:00 15.30 70300 405000 (1993) 31700 (2002) 71700 36000 37300 40700 42000 61200 82800 84700 98500 169000
2020-07-25 06:00 15.38 70800 405000 (1993) 31700 (2002) 71700 36000 37300 40700 42000 61200 82800 84700 98500 169000
2020-07-25 05:00 15.39 70900 405000 (1993) 31700 (2002) 71700 36000 37300 40700 42000 61200 82800 84700 98500 169000
2020-07-25 04:00 15.42 71100 405000 (1993) 31700 (2002) 71700 36000 37300 40700 42000 61200 82800 84700 98500 169000
2020-07-25 03:00 15.43 71200 405000 (1993) 31700 (2002) 71700 36000 37300 40700 42000 61200 82800 84700 98500 169000
2020-07-25 02:00 15.47 71500 405000 (1993) 31700 (2002) 71700 36000 37300 40700 42000 61200 82800 84700 98500 169000
2020-07-25 01:00 15.49 71600 405000 (1993) 31700 (2002) 71700 36000 37300 40700 42000 61200 82800 84700 98500 169000
2020-07-25 00:00 15.50 71700 405000 (1993) 31700 (2002) 71700 36000 37300 40700 42000 61200 82800 84700 98500 169000
2020-07-24 23:00 15.51 71700 367000 (1993) 32200 (2002) 72100 36000 37600 40300 42300 61800 83000 89700 110000 172000
2020-07-24 22:00 15.52 71800 367000 (1993) 32200 (2002) 72100 36000 37600 40300 42300 61800 83000 89700 110000 172000
2020-07-24 21:00 15.57 72100 367000 (1993) 32200 (2002) 72100 36000 37600 40300 42300 61800 83000 89700 110000 172000
2020-07-24 20:00 15.60 72300 367000 (1993) 32200 (2002) 72100 36000 37600 40300 42300 61800 83000 89700 110000 172000
2020-07-24 19:00 15.65 72700 367000 (1993) 32200 (2002) 72100 36000 37600 40300 42300 61800 83000 89700 110000 172000
2020-07-24 18:00 15.69 73000 367000 (1993) 32200 (2002) 72100 36000 37600 40300 42300 61800 83000 89700 110000 172000
2020-07-24 17:00 15.69 73000 367000 (1993) 32200 (2002) 72100 36000 37600 40300 42300 61800 83000 89700 110000 172000
2020-07-24 16:00 15.78 73600 367000 (1993) 32200 (2002) 72100 36000 37600 40300 42300 61800 83000 89700 110000 172000
2020-07-24 15:00 15.80 73700 367000 (1993) 32200 (2002) 72100 36000 37600 40300 42300 61800 83000 89700 110000 172000
2020-07-24 14:00 15.85 74100 367000 (1993) 32200 (2002) 72100 36000 37600 40300 42300 61800 83000 89700 110000 172000
2020-07-24 13:00 15.89 74400 367000 (1993) 32200 (2002) 72100 36000 37600 40300 42300 61800 83000 89700 110000 172000
2020-07-24 12:00 15.95 74800 367000 (1993) 32200 (2002) 72100 36000 37600 40300 42300 61800 83000 89700 110000 172000
2020-07-24 11:00 15.99 75100 367000 (1993) 32200 (2002) 72100 36000 37600 40300 42300 61800 83000 89700 110000 172000
2020-07-24 10:00 16.04 75400 367000 (1993) 32200 (2002) 72100 36000 37600 40300 42300 61800 83000 89700 110000 172000
2020-07-24 09:00 16.09 75800 367000 (1993) 32200 (2002) 72100 36000 37600 40300 42300 61800 83000 89700 110000 172000
2020-07-24 08:00 16.12 76000 367000 (1993) 32200 (2002) 72100 36000 37600 40300 42300 61800 83000 89700 110000 172000
2020-07-24 07:00 16.18 76400 367000 (1993) 32200 (2002) 72100 36000 37600 40300 42300 61800 83000 89700 110000 172000
2020-07-24 06:00 16.24 76900 367000 (1993) 32200 (2002) 72100 36000 37600 40300 42300 61800 83000 89700 110000 172000
2020-07-24 05:00 16.27 77100 367000 (1993) 32200 (2002) 72100 36000 37600 40300 42300 61800 83000 89700 110000 172000
2020-07-24 04:00 16.32 77400 367000 (1993) 32200 (2002) 72100 36000 37600 40300 42300 61800 83000 89700 110000 172000
2020-07-24 03:00 16.35 77700 367000 (1993) 32200 (2002) 72100 36000 37600 40300 42300 61800 83000 89700 110000 172000
2020-07-24 02:00 16.45 78400 367000 (1993) 32200 (2002) 72100 36000 37600 40300 42300 61800 83000 89700 110000 172000
2020-07-24 01:00 16.47 78500 367000 (1993) 32200 (2002) 72100 36000 37600 40300 42300 61800 83000 89700 110000 172000
2020-07-24 00:00 16.54 79000 367000 (1993) 32200 (2002) 72100 36000 37600 40300 42300 61800 83000 89700 110000 172000
2020-07-23 23:00 16.61 79600 324000 (1993) 32900 (2002) 73500 36200 37500 41900 43000 61100 86200 94100 123000 179000
2020-07-23 22:00 16.70 80200 324000 (1993) 32900 (2002) 73500 36200 37500 41900 43000 61100 86200 94100 123000 179000
2020-07-23 21:00 16.76 80700 324000 (1993) 32900 (2002) 73500 36200 37500 41900 43000 61100 86200 94100 123000 179000
2020-07-23 20:00 16.84 81300 324000 (1993) 32900 (2002) 73500 36200 37500 41900 43000 61100 86200 94100 123000 179000
2020-07-23 19:00 16.86 81400 324000 (1993) 32900 (2002) 73500 36200 37500 41900 43000 61100 86200 94100 123000 179000
2020-07-23 18:00 16.96 82200 324000 (1993) 32900 (2002) 73500 36200 37500 41900 43000 61100 86200 94100 123000 179000
2020-07-23 17:00 16.97 82200 324000 (1993) 32900 (2002) 73500 36200 37500 41900 43000 61100 86200 94100 123000 179000
2020-07-23 16:00 17.07 83000 324000 (1993) 32900 (2002) 73500 36200 37500 41900 43000 61100 86200 94100 123000 179000
2020-07-23 15:00 17.18 83800 324000 (1993) 32900 (2002) 73500 36200 37500 41900 43000 61100 86200 94100 123000 179000
2020-07-23 14:00 17.20 84000 324000 (1993) 32900 (2002) 73500 36200 37500 41900 43000 61100 86200 94100 123000 179000
2020-07-23 13:00 17.22 84100 324000 (1993) 32900 (2002) 73500 36200 37500 41900 43000 61100 86200 94100 123000 179000
2020-07-23 12:00 17.26 84400 324000 (1993) 32900 (2002) 73500 36200 37500 41900 43000 61100 86200 94100 123000 179000
2020-07-23 11:00 17.31 84800 324000 (1993) 32900 (2002) 73500 36200 37500 41900 43000 61100 86200 94100 123000 179000
2020-07-23 10:00 17.45 85900 324000 (1993) 32900 (2002) 73500 36200 37500 41900 43000 61100 86200 94100 123000 179000
2020-07-23 09:00 17.49 86200 324000 (1993) 32900 (2002) 73500 36200 37500 41900 43000 61100 86200 94100 123000 179000
2020-07-23 08:00 17.63 87300 324000 (1993) 32900 (2002) 73500 36200 37500 41900 43000 61100 86200 94100 123000 179000
2020-07-23 07:00 17.65 87500 324000 (1993) 32900 (2002) 73500 36200 37500 41900 43000 61100 86200 94100 123000 179000
2020-07-23 06:00 17.78 88500 324000 (1993) 32900 (2002) 73500 36200 37500 41900 43000 61100 86200 94100 123000 179000
2020-07-23 05:00 17.84 89000 324000 (1993) 32900 (2002) 73500 36200 37500 41900 43000 61100 86200 94100 123000 179000
2020-07-23 04:00 17.93 89700 324000 (1993) 32900 (2002) 73500 36200 37500 41900 43000 61100 86200 94100 123000 179000
2020-07-23 03:00 18.07 90800 324000 (1993) 32900 (2002) 73500 36200 37500 41900 43000 61100 86200 94100 123000 179000
2020-07-23 02:00 18.15 91500 324000 (1993) 32900 (2002) 73500 36200 37500 41900 43000 61100 86200 94100 123000 179000
2020-07-23 01:00 18.24 92200 324000 (1993) 32900 (2002) 73500 36200 37500 41900 43000 61100 86200 94100 123000 179000
2020-07-23 00:00 18.34 93000 324000 (1993) 32900 (2002) 73500 36200 37500 41900 43000 61100 86200 94100 123000 179000
2020-07-22 23:00 18.42 93700 321000 (1993) 33500 (2002) 77500 35700 37700 42400 43800 63200 87200 99200 138000 211000
2020-07-22 22:00 18.50 94400 321000 (1993) 33500 (2002) 77500 35700 37700 42400 43800 63200 87200 99200 138000 211000
2020-07-22 21:00 18.57 94900 321000 (1993) 33500 (2002) 77500 35700 37700 42400 43800 63200 87200 99200 138000 211000
2020-07-22 20:00 18.70 96000 321000 (1993) 33500 (2002) 77500 35700 37700 42400 43800 63200 87200 99200 138000 211000
2020-07-22 19:00 18.83 97100 321000 (1993) 33500 (2002) 77500 35700 37700 42400 43800 63200 87200 99200 138000 211000
2020-07-22 18:00 18.84 97200 321000 (1993) 33500 (2002) 77500 35700 37700 42400 43800 63200 87200 99200 138000 211000
2020-07-22 17:00 19.06 99100 321000 (1993) 33500 (2002) 77500 35700 37700 42400 43800 63200 87200 99200 138000 211000
2020-07-22 16:00 19.15 99900 321000 (1993) 33500 (2002) 77500 35700 37700 42400 43800 63200 87200 99200 138000 211000
2020-07-22 15:00 19.22 102000 321000 (1993) 33500 (2002) 77500 35700 37700 42400 43800 63200 87200 99200 138000 211000
2020-07-22 14:00 19.27 103000 321000 (1993) 33500 (2002) 77500 35700 37700 42400 43800 63200 87200 99200 138000 211000
2020-07-22 13:00 19.33 103000 321000 (1993) 33500 (2002) 77500 35700 37700 42400 43800 63200 87200 99200 138000 211000
2020-07-22 12:00 19.38 104000 321000 (1993) 33500 (2002) 77500 35700 37700 42400 43800 63200 87200 99200 138000 211000
2020-07-22 11:00 19.44 104000 321000 (1993) 33500 (2002) 77500 35700 37700 42400 43800 63200 87200 99200 138000 211000
2020-07-22 10:00 19.48 105000 321000 (1993) 33500 (2002) 77500 35700 37700 42400 43800 63200 87200 99200 138000 211000
2020-07-22 09:00 19.52 105000 321000 (1993) 33500 (2002) 77500 35700 37700 42400 43800 63200 87200 99200 138000 211000
2020-07-22 08:00 19.52 105000 321000 (1993) 33500 (2002) 77500 35700 37700 42400 43800 63200 87200 99200 138000 211000
2020-07-22 07:00 19.52 105000 321000 (1993) 33500 (2002) 77500 35700 37700 42400 43800 63200 87200 99200 138000 211000
2020-07-22 06:00 19.51 105000 321000 (1993) 33500 (2002) 77500 35700 37700 42400 43800 63200 87200 99200 138000 211000
2020-07-22 05:00 19.52 105000 321000 (1993) 33500 (2002) 77500 35700 37700 42400 43800 63200 87200 99200 138000 211000
2020-07-22 04:00 19.53 105000 321000 (1993) 33500 (2002) 77500 35700 37700 42400 43800 63200 87200 99200 138000 211000
2020-07-22 03:00 19.49 105000 321000 (1993) 33500 (2002) 77500 35700 37700 42400 43800 63200 87200 99200 138000 211000
2020-07-22 02:00 19.48 105000 321000 (1993) 33500 (2002) 77500 35700 37700 42400 43800 63200 87200 99200 138000 211000
2020-07-22 01:00 19.45 104000 321000 (1993) 33500 (2002) 77500 35700 37700 42400 43800 63200 87200 99200 138000 211000
2020-07-22 00:00 19.37 104000 321000 (1993) 33500 (2002) 77500 35700 37700 42400 43800 63200 87200 99200 138000 211000
2020-07-21 23:00 19.29 103000 309000 (1993) 34300 (2002) 77900 35900 37900 42200 43000 64100 90500 100000 139000 209000
2020-07-21 22:00 19.14 102000 309000 (1993) 34300 (2002) 77900 35900 37900 42200 43000 64100 90500 100000 139000 209000
2020-07-21 21:00 19.06 101000 309000 (1993) 34300 (2002) 77900 35900 37900 42200 43000 64100 90500 100000 139000 209000
2020-07-21 20:00 18.93 99700 309000 (1993) 34300 (2002) 77900 35900 37900 42200 43000 64100 90500 100000 139000 209000
2020-07-21 19:00 18.81 98700 309000 (1993) 34300 (2002) 77900 35900 37900 42200 43000 64100 90500 100000 139000 209000
2020-07-21 18:00 18.63 97100 309000 (1993) 34300 (2002) 77900 35900 37900 42200 43000 64100 90500 100000 139000 209000
2020-07-21 17:00 18.52 96200 309000 (1993) 34300 (2002) 77900 35900 37900 42200 43000 64100 90500 100000 139000 209000
2020-07-21 16:00 18.38 95000 309000 (1993) 34300 (2002) 77900 35900 37900 42200 43000 64100 90500 100000 139000 209000
2020-07-21 15:00 18.17 93300 309000 (1993) 34300 (2002) 77900 35900 37900 42200 43000 64100 90500 100000 139000 209000
2020-07-21 14:00 17.97 91600 309000 (1993) 34300 (2002) 77900 35900 37900 42200 43000 64100 90500 100000 139000 209000
2020-07-21 13:00 17.73 89700 309000 (1993) 34300 (2002) 77900 35900 37900 42200 43000 64100 90500 100000 139000 209000
2020-07-21 12:00 17.47 87600 309000 (1993) 34300 (2002) 77900 35900 37900 42200 43000 64100 90500 100000 139000 209000
2020-07-21 11:00 17.24 85800 309000 (1993) 34300 (2002) 77900 35900 37900 42200 43000 64100 90500 100000 139000 209000
2020-07-21 10:00 16.98 83800 309000 (1993) 34300 (2002) 77900 35900 37900 42200 43000 64100 90500 100000 139000 209000
2020-07-21 09:00 16.74 82000 309000 (1993) 34300 (2002) 77900 35900 37900 42200 43000 64100 90500 100000 139000 209000
2020-07-21 08:00 16.51 80300 309000 (1993) 34300 (2002) 77900 35900 37900 42200 43000 64100 90500 100000 139000 209000
2020-07-21 07:00 16.34 79000 309000 (1993) 34300 (2002) 77900 35900 37900 42200 43000 64100 90500 100000 139000 209000
2020-07-21 06:00 16.16 77700 309000 (1993) 34300 (2002) 77900 35900 37900 42200 43000 64100 90500 100000 139000 209000
2020-07-21 05:00 15.97 76400 309000 (1993) 34300 (2002) 77900 35900 37900 42200 43000 64100 90500 100000 139000 209000
2020-07-21 04:00 15.72 74600 309000 (1993) 34300 (2002) 77900 35900 37900 42200 43000 64100 90500 100000 139000 209000
2020-07-21 03:00 15.70 74400 309000 (1993) 34300 (2002) 77900 35900 37900 42200 43000 64100 90500 100000 139000 209000
2020-07-21 02:00 15.59 73700 309000 (1993) 34300 (2002) 77900 35900 37900 42200 43000 64100 90500 100000 139000 209000
2020-07-21 01:00 15.47 72800 309000 (1993) 34300 (2002) 77900 35900 37900 42200 43000 64100 90500 100000 139000 209000
2020-07-21 00:00 15.42 72500 309000 (1993) 34300 (2002) 77900 35900 37900 42200 43000 64100 90500 100000 139000 209000
2020-07-20 23:00 15.36 72100 265000 (1993) 34400 (2002) 72800 35600 37900 40700 42600 60500 84100 93900 118000 182000
2020-07-20 22:00 15.30 71700 265000 (1993) 34400 (2002) 72800 35600 37900 40700 42600 60500 84100 93900 118000 182000
2020-07-20 21:00 15.24 71200 265000 (1993) 34400 (2002) 72800 35600 37900 40700 42600 60500 84100 93900 118000 182000
2020-07-20 20:00 15.19 70900 265000 (1993) 34400 (2002) 72800 35600 37900 40700 42600 60500 84100 93900 118000 182000
2020-07-20 19:00 15.15 70600 265000 (1993) 34400 (2002) 72800 35600 37900 40700 42600 60500 84100 93900 118000 182000
2020-07-20 18:00 15.12 70400 265000 (1993) 34400 (2002) 72800 35600 37900 40700 42600 60500 84100 93900 118000 182000
2020-07-20 17:00 15.03 69800 265000 (1993) 34400 (2002) 72800 35600 37900 40700 42600 60500 84100 93900 118000 182000
2020-07-20 16:00 15.00 69600 265000 (1993) 34400 (2002) 72800 35600 37900 40700 42600 60500 84100 93900 118000 182000
2020-07-20 15:00 14.92 69100 265000 (1993) 34400 (2002) 72800 35600 37900 40700 42600 60500 84100 93900 118000 182000
2020-07-20 14:00 14.90 68900 265000 (1993) 34400 (2002) 72800 35600 37900 40700 42600 60500 84100 93900 118000 182000
2020-07-20 13:00 14.82 68400 265000 (1993) 34400 (2002) 72800 35600 37900 40700 42600 60500 84100 93900 118000 182000
2020-07-20 12:00 14.71 67700 265000 (1993) 34400 (2002) 72800 35600 37900 40700 42600 60500 84100 93900 118000 182000
2020-07-20 11:00 14.77 68100 265000 (1993) 34400 (2002) 72800 35600 37900 40700 42600 60500 84100 93900 118000 182000
2020-07-20 10:00 14.74 67900 265000 (1993) 34400 (2002) 72800 35600 37900 40700 42600 60500 84100 93900 118000 182000
2020-07-20 09:00 14.70 67600 265000 (1993) 34400 (2002) 72800 35600 37900 40700 42600 60500 84100 93900 118000 182000
2020-07-20 08:00 14.70 67600 265000 (1993) 34400 (2002) 72800 35600 37900 40700 42600 60500 84100 93900 118000 182000
2020-07-20 07:00 14.71 67700 265000 (1993) 34400 (2002) 72800 35600 37900 40700 42600 60500 84100 93900 118000 182000
2020-07-20 06:00 14.70 67600 265000 (1993) 34400 (2002) 72800 35600 37900 40700 42600 60500 84100 93900 118000 182000
2020-07-20 05:00 14.71 67700 265000 (1993) 34400 (2002) 72800 35600 37900 40700 42600 60500 84100 93900 118000 182000
2020-07-20 04:00 14.71 67700 265000 (1993) 34400 (2002) 72800 35600 37900 40700 42600 60500 84100 93900 118000 182000
2020-07-20 03:00 14.74 67900 265000 (1993) 34400 (2002) 72800 35600 37900 40700 42600 60500 84100 93900 118000 182000
2020-07-20 02:00 14.73 67800 265000 (1993) 34400 (2002) 72800 35600 37900 40700 42600 60500 84100 93900 118000 182000
2020-07-20 01:00 14.79 68200 265000 (1993) 34400 (2002) 72800 35600 37900 40700 42600 60500 84100 93900 118000 182000
2020-07-20 00:00 14.73 67800 265000 (1993) 34400 (2002) 72800 35600 37900 40700 42600 60500 84100 93900 118000 182000
2020-07-19 23:00 14.76 68000 251000 (1993) 34800 (2002) 70000 36600 38500 40200 41800 59700 84800 87600 111000 164000
2020-07-19 22:00 14.78 68100 251000 (1993) 34800 (2002) 70000 36600 38500 40200 41800 59700 84800 87600 111000 164000
2020-07-19 21:00 14.80 68300 251000 (1993) 34800 (2002) 70000 36600 38500 40200 41800 59700 84800 87600 111000 164000
2020-07-19 20:00 14.82 68400 251000 (1993) 34800 (2002) 70000 36600 38500 40200 41800 59700 84800 87600 111000 164000
2020-07-19 19:00 14.84 68500 251000 (1993) 34800 (2002) 70000 36600 38500 40200 41800 59700 84800 87600 111000 164000
2020-07-19 18:00 14.85 68600 251000 (1993) 34800 (2002) 70000 36600 38500 40200 41800 59700 84800 87600 111000 164000
2020-07-19 17:00 14.85 68600 251000 (1993) 34800 (2002) 70000 36600 38500 40200 41800 59700 84800 87600 111000 164000
2020-07-19 16:00 14.81 68300 251000 (1993) 34800 (2002) 70000 36600 38500 40200 41800 59700 84800 87600 111000 164000
2020-07-19 15:00 14.89 68900 251000 (1993) 34800 (2002) 70000 36600 38500 40200 41800 59700 84800 87600 111000 164000
2020-07-19 14:00 14.90 68900 251000 (1993) 34800 (2002) 70000 36600 38500 40200 41800 59700 84800 87600 111000 164000
2020-07-19 13:00 14.96 69300 251000 (1993) 34800 (2002) 70000 36600 38500 40200 41800 59700 84800 87600 111000 164000
2020-07-19 12:00 14.99 69600 251000 (1993) 34800 (2002) 70000 36600 38500 40200 41800 59700 84800 87600 111000 164000
2020-07-19 11:00 15.00 69600 251000 (1993) 34800 (2002) 70000 36600 38500 40200 41800 59700 84800 87600 111000 164000
2020-07-19 10:00 15.00 69600 251000 (1993) 34800 (2002) 70000 36600 38500 40200 41800 59700 84800 87600 111000 164000
2020-07-19 09:00 15.04 69900 251000 (1993) 34800 (2002) 70000 36600 38500 40200 41800 59700 84800 87600 111000 164000
2020-07-19 08:00 15.07 70100 251000 (1993) 34800 (2002) 70000 36600 38500 40200 41800 59700 84800 87600 111000 164000
2020-07-19 07:00 15.10 70300 251000 (1993) 34800 (2002) 70000 36600 38500 40200 41800 59700 84800 87600 111000 164000
2020-07-19 06:00 15.14 70600 251000 (1993) 34800 (2002) 70000 36600 38500 40200 41800 59700 84800 87600 111000 164000
2020-07-19 05:00 15.15 70600 251000 (1993) 34800 (2002) 70000 36600 38500 40200 41800 59700 84800 87600 111000 164000
2020-07-19 04:00 15.24 71200 251000 (1993) 34800 (2002) 70000 36600 38500 40200 41800 59700 84800 87600 111000 164000
2020-07-19 03:00 15.29 71600 251000 (1993) 34800 (2002) 70000 36600 38500 40200 41800 59700 84800 87600 111000 164000
2020-07-19 02:00 15.34 71900 251000 (1993) 34800 (2002) 70000 36600 38500 40200 41800 59700 84800 87600 111000 164000
2020-07-19 01:00 15.40 72300 251000 (1993) 34800 (2002) 70000 36600 38500 40200 41800 59700 84800 87600 111000 164000
2020-07-19 00:00 15.46 72800 251000 (1993) 34800 (2002) 70000 36600 38500 40200 41800 59700 84800 87600 111000 164000
2020-07-18 23:00 15.50 73000 254000 (1993) 35200 (2002) 70900 36900 39100 40800 43000 62000 85000 88600 112000 164000
2020-07-18 22:00 15.55 73400 254000 (1993) 35200 (2002) 70900 36900 39100 40800 43000 62000 85000 88600 112000 164000
2020-07-18 21:00 15.56 73500 254000 (1993) 35200 (2002) 70900 36900 39100 40800 43000 62000 85000 88600 112000 164000
2020-07-18 20:00 15.65 74100 254000 (1993) 35200 (2002) 70900 36900 39100 40800 43000 62000 85000 88600 112000 164000
2020-07-18 19:00 15.71 74500 254000 (1993) 35200 (2002) 70900 36900 39100 40800 43000 62000 85000 88600 112000 164000
2020-07-18 18:00 15.78 75000 254000 (1993) 35200 (2002) 70900 36900 39100 40800 43000 62000 85000 88600 112000 164000
2020-07-18 17:00 15.84 75400 254000 (1993) 35200 (2002) 70900 36900 39100 40800 43000 62000 85000 88600 112000 164000
2020-07-18 16:00 15.90 75900 254000 (1993) 35200 (2002) 70900 36900 39100 40800 43000 62000 85000 88600 112000 164000
2020-07-18 15:00 16.00 76600 254000 (1993) 35200 (2002) 70900 36900 39100 40800 43000 62000 85000 88600 112000 164000
2020-07-18 14:00 16.08 77100 254000 (1993) 35200 (2002) 70900 36900 39100 40800 43000 62000 85000 88600 112000 164000
2020-07-18 13:00 16.18 77900 254000 (1993) 35200 (2002) 70900 36900 39100 40800 43000 62000 85000 88600 112000 164000
2020-07-18 12:00 16.23 78200 254000 (1993) 35200 (2002) 70900 36900 39100 40800 43000 62000 85000 88600 112000 164000
2020-07-18 11:00 16.36 79200 254000 (1993) 35200 (2002) 70900 36900 39100 40800 43000 62000 85000 88600 112000 164000
2020-07-18 10:00 16.48 80100 254000 (1993) 35200 (2002) 70900 36900 39100 40800 43000 62000 85000 88600 112000 164000
2020-07-18 09:00 16.52 80400 254000 (1993) 35200 (2002) 70900 36900 39100 40800 43000 62000 85000 88600 112000 164000
2020-07-18 08:00 16.68 81600 254000 (1993) 35200 (2002) 70900 36900 39100 40800 43000 62000 85000 88600 112000 164000
2020-07-18 07:00 16.78 82300 254000 (1993) 35200 (2002) 70900 36900 39100 40800 43000 62000 85000 88600 112000 164000
2020-07-18 06:00 16.91 83300 254000 (1993) 35200 (2002) 70900 36900 39100 40800 43000 62000 85000 88600 112000 164000
2020-07-18 05:00 16.97 83800 254000 (1993) 35200 (2002) 70900 36900 39100 40800 43000 62000 85000 88600 112000 164000
2020-07-18 04:00 17.08 84600 254000 (1993) 35200 (2002) 70900 36900 39100 40800 43000 62000 85000 88600 112000 164000
2020-07-18 03:00 17.15 85100 254000 (1993) 35200 (2002) 70900 36900 39100 40800 43000 62000 85000 88600 112000 164000
2020-07-18 02:00 17.20 85500 254000 (1993) 35200 (2002) 70900 36900 39100 40800 43000 62000 85000 88600 112000 164000
2020-07-18 01:00 17.27 86100 254000 (1993) 35200 (2002) 70900 36900 39100 40800 43000 62000 85000 88600 112000 164000
2020-07-18 00:00 17.39 87000 254000 (1993) 35200 (2002) 70900 36900 39100 40800 43000 62000 85000 88600 112000 164000
2020-07-17 23:00 17.46 87600 259000 (1993) 36400 (2002) 71400 37800 39600 41700 43700 62100 83800 88200 114000 162000
2020-07-17 22:00 17.47 87600 259000 (1993) 36400 (2002) 71400 37800 39600 41700 43700 62100 83800 88200 114000 162000
2020-07-17 21:00 17.54 88200 259000 (1993) 36400 (2002) 71400 37800 39600 41700 43700 62100 83800 88200 114000 162000
2020-07-17 20:00 17.65 89100 259000 (1993) 36400 (2002) 71400 37800 39600 41700 43700 62100 83800 88200 114000 162000
2020-07-17 19:00 17.72 89600 259000 (1993) 36400 (2002) 71400 37800 39600 41700 43700 62100 83800 88200 114000 162000
2020-07-17 18:00 17.77 90000 259000 (1993) 36400 (2002) 71400 37800 39600 41700 43700 62100 83800 88200 114000 162000
2020-07-17 17:00 17.91 91200 259000 (1993) 36400 (2002) 71400 37800 39600 41700 43700 62100 83800 88200 114000 162000
2020-07-17 16:00 17.95 91500 259000 (1993) 36400 (2002) 71400 37800 39600 41700 43700 62100 83800 88200 114000 162000
2020-07-17 15:00 17.92 91200 259000 (1993) 36400 (2002) 71400 37800 39600 41700 43700 62100 83800 88200 114000 162000
2020-07-17 14:00 17.97 91600 259000 (1993) 36400 (2002) 71400 37800 39600 41700 43700 62100 83800 88200 114000 162000
2020-07-17 13:00 18.01 92000 259000 (1993) 36400 (2002) 71400 37800 39600 41700 43700 62100 83800 88200 114000 162000
2020-07-17 12:00 18.03 92100 259000 (1993) 36400 (2002) 71400 37800 39600 41700 43700 62100 83800 88200 114000 162000
2020-07-17 11:00 18.06 92400 259000 (1993) 36400 (2002) 71400 37800 39600 41700 43700 62100 83800 88200 114000 162000
2020-07-17 10:00 18.06 92400 259000 (1993) 36400 (2002) 71400 37800 39600 41700 43700 62100 83800 88200 114000 162000
2020-07-17 09:00 18.03 92100 259000 (1993) 36400 (2002) 71400 37800 39600 41700 43700 62100 83800 88200 114000 162000
2020-07-17 08:00 18.02 92100 259000 (1993) 36400 (2002) 71400 37800 39600 41700 43700 62100 83800 88200 114000 162000
2020-07-17 07:00 18.03 92100 259000 (1993) 36400 (2002) 71400 37800 39600 41700 43700 62100 83800 88200 114000 162000
2020-07-17 06:00 18.02 92100 259000 (1993) 36400 (2002) 71400 37800 39600 41700 43700 62100 83800 88200 114000 162000
2020-07-17 05:00 18.02 92100 259000 (1993) 36400 (2002) 71400 37800 39600 41700 43700 62100 83800 88200 114000 162000
2020-07-17 04:00 18.03 92100 259000 (1993) 36400 (2002) 71400 37800 39600 41700 43700 62100 83800 88200 114000 162000
2020-07-17 03:00 18.02 92100 259000 (1993) 36400 (2002) 71400 37800 39600 41700 43700 62100 83800 88200 114000 162000
2020-07-17 02:00 18.01 92000 259000 (1993) 36400 (2002) 71400 37800 39600 41700 43700 62100 83800 88200 114000 162000
2020-07-17 01:00 17.98 91700 259000 (1993) 36400 (2002) 71400 37800 39600 41700 43700 62100 83800 88200 114000 162000
2020-07-17 00:00 17.97 91600 259000 (1993) 36400 (2002) 71400 37800 39600 41700 43700 62100 83800 88200 114000 162000
2020-07-16 23:00 17.98 91700 261000 (1993) 36700 (2006) 72700 38300 39700 41900 43300 64500 86200 90300 119000 160000
2020-07-16 22:00 17.98 91700 261000 (1993) 36700 (2006) 72700 38300 39700 41900 43300 64500 86200 90300 119000 160000
2020-07-16 21:00 17.97 91600 261000 (1993) 36700 (2006) 72700 38300 39700 41900 43300 64500 86200 90300 119000 160000
2020-07-16 20:00 17.98 91700 261000 (1993) 36700 (2006) 72700 38300 39700 41900 43300 64500 86200 90300 119000 160000
2020-07-16 19:00 17.92 91200 261000 (1993) 36700 (2006) 72700 38300 39700 41900 43300 64500 86200 90300 119000 160000
2020-07-16 18:00 17.94 91400 261000 (1993) 36700 (2006) 72700 38300 39700 41900 43300 64500 86200 90300 119000 160000
2020-07-16 17:00 17.91 91200 261000 (1993) 36700 (2006) 72700 38300 39700 41900 43300 64500 86200 90300 119000 160000
2020-07-16 16:00 17.81 90400 261000 (1993) 36700 (2006) 72700 38300 39700 41900 43300 64500 86200 90300 119000 160000
2020-07-16 15:00 17.88 90900 261000 (1993) 36700 (2006) 72700 38300 39700 41900 43300 64500 86200 90300 119000 160000
2020-07-16 14:00 17.94 91400 261000 (1993) 36700 (2006) 72700 38300 39700 41900 43300 64500 86200 90300 119000 160000
2020-07-16 13:00 18.00 91900 261000 (1993) 36700 (2006) 72700 38300 39700 41900 43300 64500 86200 90300 119000 160000
2020-07-16 12:00 17.97 91600 261000 (1993) 36700 (2006) 72700 38300 39700 41900 43300 64500 86200 90300 119000 160000
2020-07-16 11:00 17.99 91800 261000 (1993) 36700 (2006) 72700 38300 39700 41900 43300 64500 86200 90300 119000 160000
2020-07-16 10:00 18.00 91900 261000 (1993) 36700 (2006) 72700 38300 39700 41900 43300 64500 86200 90300 119000 160000
2020-07-16 09:00 18.04 92200 261000 (1993) 36700 (2006) 72700 38300 39700 41900 43300 64500 86200 90300 119000 160000
2020-07-16 08:00 18.08 92500 261000 (1993) 36700 (2006) 72700 38300 39700 41900 43300 64500 86200 90300 119000 160000
2020-07-16 07:00 18.09 92600 261000 (1993) 36700 (2006) 72700 38300 39700 41900 43300 64500 86200 90300 119000 160000
2020-07-16 06:00 18.07 92500 261000 (1993) 36700 (2006) 72700 38300 39700 41900 43300 64500 86200 90300 119000 160000
2020-07-16 05:00 18.07 92500 261000 (1993) 36700 (2006) 72700 38300 39700 41900 43300 64500 86200 90300 119000 160000
2020-07-16 04:00 18.04 92200 261000 (1993) 36700 (2006) 72700 38300 39700 41900 43300 64500 86200 90300 119000 160000
2020-07-16 03:00 17.98 91700 261000 (1993) 36700 (2006) 72700 38300 39700 41900 43300 64500 86200 90300 119000 160000
2020-07-16 02:00 17.93 91300 261000 (1993) 36700 (2006) 72700 38300 39700 41900 43300 64500 86200 90300 119000 160000
2020-07-16 01:00 17.86 90800 261000 (1993) 36700 (2006) 72700 38300 39700 41900 43300 64500 86200 90300 119000 160000
2020-07-16 00:00 17.78 90100 261000 (1993) 36700 (2006) 72700 38300 39700 41900 43300 64500 86200 90300 119000 160000
2020-07-15 23:00 17.66 89100 254000 (1993) 36000 (2002) 74500 37800 38800 42400 43400 61700 88900 95200 130000 161000
2020-07-15 22:00 17.53 88100 254000 (1993) 36000 (2002) 74500 37800 38800 42400 43400 61700 88900 95200 130000 161000
2020-07-15 21:00 17.37 86900 254000 (1993) 36000 (2002) 74500 37800 38800 42400 43400 61700 88900 95200 130000 161000
2020-07-15 20:00 17.20 85500 254000 (1993) 36000 (2002) 74500 37800 38800 42400 43400 61700 88900 95200 130000 161000
2020-07-15 19:00 17.03 84200 254000 (1993) 36000 (2002) 74500 37800 38800 42400 43400 61700 88900 95200 130000 161000
2020-07-15 18:00 16.88 83100 254000 (1993) 36000 (2002) 74500 37800 38800 42400 43400 61700 88900 95200 130000 161000
2020-07-15 17:00 16.70 81700 254000 (1993) 36000 (2002) 74500 37800 38800 42400 43400 61700 88900 95200 130000 161000
2020-07-15 16:00 16.53 80400 254000 (1993) 36000 (2002) 74500 37800 38800 42400 43400 61700 88900 95200 130000 161000
2020-07-15 15:00 16.38 79300 254000 (1993) 36000 (2002) 74500 37800 38800 42400 43400 61700 88900 95200 130000 161000
2020-07-15 14:00 16.27 78500 254000 (1993) 36000 (2002) 74500 37800 38800 42400 43400 61700 88900 95200 130000 161000
2020-07-15 13:00 16.14 79800 254000 (1993) 36000 (2002) 74500 37800 38800 42400 43400 61700 88900 95200 130000 161000
2020-07-15 12:00 15.97 78500 254000 (1993) 36000 (2002) 74500 37800 38800 42400 43400 61700 88900 95200 130000 161000
2020-07-15 11:00 15.78 77100 254000 (1993) 36000 (2002) 74500 37800 38800 42400 43400 61700 88900 95200 130000 161000
2020-07-15 10:00 15.67 76400 254000 (1993) 36000 (2002) 74500 37800 38800 42400 43400 61700 88900 95200 130000 161000
2020-07-15 09:00 15.52 75300 254000 (1993) 36000 (2002) 74500 37800 38800 42400 43400 61700 88900 95200 130000 161000
2020-07-15 08:00 15.48 75000 254000 (1993) 36000 (2002) 74500 37800 38800 42400 43400 61700 88900 95200 130000 161000
2020-07-15 07:00 15.29 73700 254000 (1993) 36000 (2002) 74500 37800 38800 42400 43400 61700 88900 95200 130000 161000
2020-07-15 06:00 15.14 72600 254000 (1993) 36000 (2002) 74500 37800 38800 42400 43400 61700 88900 95200 130000 161000
2020-07-15 05:00 14.94 71200 254000 (1993) 36000 (2002) 74500 37800 38800 42400 43400 61700 88900 95200 130000 161000
2020-07-15 04:00 15.11 72400 254000 (1993) 36000 (2002) 74500 37800 38800 42400 43400 61700 88900 95200 130000 161000
2020-07-15 03:00 15.10 72300 254000 (1993) 36000 (2002) 74500 37800 38800 42400 43400 61700 88900 95200 130000 161000
2020-07-15 02:00 15.09 72300 254000 (1993) 36000 (2002) 74500 37800 38800 42400 43400 61700 88900 95200 130000 161000
2020-07-15 01:00 15.10 72300 254000 (1993) 36000 (2002) 74500 37800 38800 42400 43400 61700 88900 95200 130000 161000
2020-07-15 00:00 15.04 71900 254000 (1993) 36000 (2002) 74500 37800 38800 42400 43400 61700 88900 95200 130000 161000
2020-07-14 23:00 15.05 72000 252000 (1993) 35100 (2002) 76500 37900 38900 42600 43600 65000 91100 98500 127000 165000
2020-07-14 22:00 15.12 72500 252000 (1993) 35100 (2002) 76500 37900 38900 42600 43600 65000 91100 98500 127000 165000
2020-07-14 21:00 15.14 72600 252000 (1993) 35100 (2002) 76500 37900 38900 42600 43600 65000 91100 98500 127000 165000
2020-07-14 20:00 15.16 72800 252000 (1993) 35100 (2002) 76500 37900 38900 42600 43600 65000 91100 98500 127000 165000
2020-07-14 19:00 15.13 72600 252000 (1993) 35100 (2002) 76500 37900 38900 42600 43600 65000 91100 98500 127000 165000
2020-07-14 18:00 15.00 71700 252000 (1993) 35100 (2002) 76500 37900 38900 42600 43600 65000 91100 98500 127000 165000
2020-07-14 17:00 15.05 72000 252000 (1993) 35100 (2002) 76500 37900 38900 42600 43600 65000 91100 98500 127000 165000
2020-07-14 16:00 15.13 72600 252000 (1993) 35100 (2002) 76500 37900 38900 42600 43600 65000 91100 98500 127000 165000
2020-07-14 15:00 15.11 72400 252000 (1993) 35100 (2002) 76500 37900 38900 42600 43600 65000 91100 98500 127000 165000
2020-07-14 14:00 15.14 72600 252000 (1993) 35100 (2002) 76500 37900 38900 42600 43600 65000 91100 98500 127000 165000
2020-07-14 13:00 15.10 72300 252000 (1993) 35100 (2002) 76500 37900 38900 42600 43600 65000 91100 98500 127000 165000
2020-07-14 12:00 15.18 72900 252000 (1993) 35100 (2002) 76500 37900 38900 42600 43600 65000 91100 98500 127000 165000
2020-07-14 11:00 15.03 71900 252000 (1993) 35100 (2002) 76500 37900 38900 42600 43600 65000 91100 98500 127000 165000
2020-07-14 10:00 15.02 71800 252000 (1993) 35100 (2002) 76500 37900 38900 42600 43600 65000 91100 98500 127000 165000
2020-07-14 09:00 15.18 72900 252000 (1993) 35100 (2002) 76500 37900 38900 42600 43600 65000 91100 98500 127000 165000
2020-07-14 08:00 15.14 72600 252000 (1993) 35100 (2002) 76500 37900 38900 42600 43600 65000 91100 98500 127000 165000
2020-07-14 07:00 15.20 73000 252000 (1993) 35100 (2002) 76500 37900 38900 42600 43600 65000 91100 98500 127000 165000
2020-07-14 06:00 15.20 73000 252000 (1993) 35100 (2002) 76500 37900 38900 42600 43600 65000 91100 98500 127000 165000
2020-07-14 05:00 15.18 72900 252000 (1993) 35100 (2002) 76500 37900 38900 42600 43600 65000 91100 98500 127000 165000
2020-07-14 04:00 15.18 72900 252000 (1993) 35100 (2002) 76500 37900 38900 42600 43600 65000 91100 98500 127000 165000
2020-07-14 03:00 15.19 73000 252000 (1993) 35100 (2002) 76500 37900 38900 42600 43600 65000 91100 98500 127000 165000
2020-07-14 02:00 15.17 72800 252000 (1993) 35100 (2002) 76500 37900 38900 42600 43600 65000 91100 98500 127000 165000
2020-07-14 01:00 15.18 72900 252000 (1993) 35100 (2002) 76500 37900 38900 42600 43600 65000 91100 98500 127000 165000
2020-07-14 00:00 15.17 72800 252000 (1993) 35100 (2002) 76500 37900 38900 42600 43600 65000 91100 98500 127000 165000
2020-07-13 23:00 15.15 72700 257000 (1993) 35000 (2002) 77600 38500 39800 42300 43900 61800 95200 98000 144000 171000
2020-07-13 22:00 15.15 72700 257000 (1993) 35000 (2002) 77600 38500 39800 42300 43900 61800 95200 98000 144000 171000
2020-07-13 21:00 15.14 72600 257000 (1993) 35000 (2002) 77600 38500 39800 42300 43900 61800 95200 98000 144000 171000
2020-07-13 20:00 15.13 72600 257000 (1993) 35000 (2002) 77600 38500 39800 42300 43900 61800 95200 98000 144000 171000
2020-07-13 19:00 15.15 72700 257000 (1993) 35000 (2002) 77600 38500 39800 42300 43900 61800 95200 98000 144000 171000
2020-07-13 18:00 15.12 72500 257000 (1993) 35000 (2002) 77600 38500 39800 42300 43900 61800 95200 98000 144000 171000
2020-07-13 17:00 15.05 72000 257000 (1993) 35000 (2002) 77600 38500 39800 42300 43900 61800 95200 98000 144000 171000
2020-07-13 16:00 15.01 71700 257000 (1993) 35000 (2002) 77600 38500 39800 42300 43900 61800 95200 98000 144000 171000
2020-07-13 15:00 15.02 71800 257000 (1993) 35000 (2002) 77600 38500 39800 42300 43900 61800 95200 98000 144000 171000
2020-07-13 14:00 15.03 71900 257000 (1993) 35000 (2002) 77600 38500 39800 42300 43900 61800 95200 98000 144000 171000
2020-07-13 13:00 15.04 71900 257000 (1993) 35000 (2002) 77600 38500 39800 42300 43900 61800 95200 98000 144000 171000
2020-07-13 12:00 15.00 71700 257000 (1993) 35000 (2002) 77600 38500 39800 42300 43900 61800 95200 98000 144000 171000
2020-07-13 11:00 15.03 71900 257000 (1993) 35000 (2002) 77600 38500 39800 42300 43900 61800 95200 98000 144000 171000
2020-07-13 10:00 15.02 71800 257000 (1993) 35000 (2002) 77600 38500 39800 42300 43900 61800 95200 98000 144000 171000
2020-07-13 09:00 15.01 71700 257000 (1993) 35000 (2002) 77600 38500 39800 42300 43900 61800 95200 98000 144000 171000
2020-07-13 08:00 14.99 71600 257000 (1993) 35000 (2002) 77600 38500 39800 42300 43900 61800 95200 98000 144000 171000
2020-07-13 07:00 14.97 71500 257000 (1993) 35000 (2002) 77600 38500 39800 42300 43900 61800 95200 98000 144000 171000
2020-07-13 06:00 14.97 71500 257000 (1993) 35000 (2002) 77600 38500 39800 42300 43900 61800 95200 98000 144000 171000
2020-07-13 05:00 14.97 71500 257000 (1993) 35000 (2002) 77600 38500 39800 42300 43900 61800 95200 98000 144000 171000
2020-07-13 04:00 14.97 71500 257000 (1993) 35000 (2002) 77600 38500 39800 42300 43900 61800 95200 98000 144000 171000
2020-07-13 03:00 14.95 71300 257000 (1993) 35000 (2002) 77600 38500 39800 42300 43900 61800 95200 98000 144000 171000
2020-07-13 02:00 14.96 71400 257000 (1993) 35000 (2002) 77600 38500 39800 42300 43900 61800 95200 98000 144000 171000
2020-07-13 01:00 14.97 71500 257000 (1993) 35000 (2002) 77600 38500 39800 42300 43900 61800 95200 98000 144000 171000
2020-07-13 00:00 14.97 71500 257000 (1993) 35000 (2002) 77600 38500 39800 42300 43900 61800 95200 98000 144000 171000
2020-07-12 23:00 14.98 71500 251000 (1993) 35500 (2002) 77900 38700 40200 42400 44000 62000 96400 103000 148000 171000
2020-07-12 22:00 14.98 71500 251000 (1993) 35500 (2002) 77900 38700 40200 42400 44000 62000 96400 103000 148000 171000
2020-07-12 21:00 14.98 71500 251000 (1993) 35500 (2002) 77900 38700 40200 42400 44000 62000 96400 103000 148000 171000
2020-07-12 20:00 14.98 71500 251000 (1993) 35500 (2002) 77900 38700 40200 42400 44000 62000 96400 103000 148000 171000
2020-07-12 19:00 15.01 71700 251000 (1993) 35500 (2002) 77900 38700 40200 42400 44000 62000 96400 103000 148000 171000
2020-07-12 18:00 15.02 71800 251000 (1993) 35500 (2002) 77900 38700 40200 42400 44000 62000 96400 103000 148000 171000
2020-07-12 17:00 15.04 71900 251000 (1993) 35500 (2002) 77900 38700 40200 42400 44000 62000 96400 103000 148000 171000
2020-07-12 16:00 14.97 71500 251000 (1993) 35500 (2002) 77900 38700 40200 42400 44000 62000 96400 103000 148000 171000
2020-07-12 15:00 14.97 71500 251000 (1993) 35500 (2002) 77900 38700 40200 42400 44000 62000 96400 103000 148000 171000
2020-07-12 14:00 15.10 72300 251000 (1993) 35500 (2002) 77900 38700 40200 42400 44000 62000 96400 103000 148000 171000
2020-07-12 13:00 15.10 72300 251000 (1993) 35500 (2002) 77900 38700 40200 42400 44000 62000 96400 103000 148000 171000
2020-07-12 12:00 15.06 72100 251000 (1993) 35500 (2002) 77900 38700 40200 42400 44000 62000 96400 103000 148000 171000
2020-07-12 11:00 15.15 72700 251000 (1993) 35500 (2002) 77900 38700 40200 42400 44000 62000 96400 103000 148000 171000
2020-07-12 10:00 15.17 72800 251000 (1993) 35500 (2002) 77900 38700 40200 42400 44000 62000 96400 103000 148000 171000
2020-07-12 09:00 15.19 73000 251000 (1993) 35500 (2002) 77900 38700 40200 42400 44000 62000 96400 103000 148000 171000
2020-07-12 08:00 15.19 73000 251000 (1993) 35500 (2002) 77900 38700 40200 42400 44000 62000 96400 103000 148000 171000
2020-07-12 07:00 15.19 73000 251000 (1993) 35500 (2002) 77900 38700 40200 42400 44000 62000 96400 103000 148000 171000
2020-07-12 06:00 15.26 73500 251000 (1993) 35500 (2002) 77900 38700 40200 42400 44000 62000 96400 103000 148000 171000
2020-07-12 05:00 15.27 73500 251000 (1993) 35500 (2002) 77900 38700 40200 42400 44000 62000 96400 103000 148000 171000
2020-07-12 04:00 15.28 73600 251000 (1993) 35500 (2002) 77900 38700 40200 42400 44000 62000 96400 103000 148000 171000
2020-07-12 03:00 15.27 73500 251000 (1993) 35500 (2002) 77900 38700 40200 42400 44000 62000 96400 103000 148000 171000
2020-07-12 02:00 15.34 74000 251000 (1993) 35500 (2002) 77900 38700 40200 42400 44000 62000 96400 103000 148000 171000
2020-07-12 01:00 15.35 74100 251000 (1993) 35500 (2002) 77900 38700 40200 42400 44000 62000 96400 103000 148000 171000
2020-07-12 00:00 15.38 74300 251000 (1993) 35500 (2002) 77900 38700 40200 42400 44000 62000 96400 103000 148000 171000

A total of 740 rows are displayed for years 1958 through 2019.